<?xml version="1.0" encoding="UTF-8" standalone="no" ?><gpx xmlns="http://www.topografix.com/GPX/1/1" xmlns:gpxx="http://www.garmin.com/xmlschemas/GpxExtensions/v3" xmlns:wptx1="http://www.garmin.com/xmlschemas/WaypointExtension/v1" xmlns:gpxtpx="http://www.garmin.com/xmlschemas/TrackPointExtension/v1" creator="GuideVTT.com" version="1.1" xmlns:xsi="http://www.w3.org/2001/XMLSchema-instance" xsi:schemaLocation="http://www.topografix.com/GPX/1/1 http://www.topografix.com/GPX/1/1/gpx.xsd http://www.garmin.com/xmlschemas/GpxExtensions/v3 http://www8.garmin.com/xmlschemas/GpxExtensionsv3.xsd http://www.garmin.com/xmlschemas/WaypointExtension/v1 http://www8.garmin.com/xmlschemas/WaypointExtensionv1.xsd http://www.garmin.com/xmlschemas/TrackPointExtension/v1 http://www.garmin.com/xmlschemas/TrackPointExtensionv1.xsd">
<metadata><link href="http://www.garmin.com"><text>Garmin International</text></link><time>2013-06-22T15:13:50Z</time></metadata>
<trk><name>rp2015_16b.gpx</name><extensions><gpxx:TrackExtension><gpxx:DisplayColor>Cyan</gpxx:DisplayColor></gpxx:TrackExtension></extensions><trkseg>
<trkpt lat="46.6000113543" lon="6.3695683144"><ele>899.93</ele><time>2015-07-15T15:21:09Z</time></trkpt>
<trkpt lat="46.6004123446" lon="6.3690180425"><ele>782.65</ele><time>2015-07-15T15:21:29Z</time></trkpt>
<trkpt lat="46.6004156135" lon="6.3690429367"><ele>776.4</ele><time>2015-07-15T15:21:43Z</time></trkpt>
<trkpt lat="46.6004177090" lon="6.3689976744"><ele>773.04</ele><time>2015-07-15T15:22:03Z</time></trkpt>
<trkpt lat="46.6004170384" lon="6.3689830899"><ele>772.56</ele><time>2015-07-15T15:22:34Z</time></trkpt>
<trkpt lat="46.6004255041" lon="6.3689833414"><ele>770.63</ele><time>2015-07-15T15:23:10Z</time></trkpt>
<trkpt lat="46.6004211456" lon="6.3690022845"><ele>772.08</ele><time>2015-07-15T15:23:41Z</time></trkpt>
<trkpt lat="46.6004197206" lon="6.3689934835"><ele>770.15</ele><time>2015-07-15T15:24:08Z</time></trkpt>
<trkpt lat="46.6004208103" lon="6.3689879514"><ele>770.15</ele><time>2015-07-15T15:24:29Z</time></trkpt>
<trkpt lat="46.6004142724" lon="6.3689892087"><ele>770.63</ele><time>2015-07-15T15:24:50Z</time></trkpt>
<trkpt lat="46.6004050523" lon="6.3689891249"><ele>770.63</ele><time>2015-07-15T15:25:11Z</time></trkpt>
<trkpt lat="46.6004033759" lon="6.3689829223"><ele>770.63</ele><time>2015-07-15T15:25:34Z</time></trkpt>
<trkpt lat="46.6004129313" lon="6.3689758815"><ele>770.63</ele><time>2015-07-15T15:25:51Z</time></trkpt>
<trkpt lat="46.6004137695" lon="6.3689735346"><ele>770.15</ele><time>2015-07-15T15:26:10Z</time></trkpt>
<trkpt lat="46.6004058067" lon="6.3689787313"><ele>770.15</ele><time>2015-07-15T15:26:34Z</time></trkpt>
<trkpt lat="46.6004026216" lon="6.3689808268"><ele>770.63</ele><time>2015-07-15T15:26:41Z</time></trkpt>
<trkpt lat="46.6003993526" lon="6.3690015301"><ele>771.11</ele><time>2015-07-15T15:26:56Z</time></trkpt>
<trkpt lat="46.6004027892" lon="6.3690015301"><ele>772.08</ele><time>2015-07-15T15:27:13Z</time></trkpt>
<trkpt lat="46.6004034597" lon="6.3690038770"><ele>772.56</ele><time>2015-07-15T15:27:32Z</time></trkpt>
<trkpt lat="46.6004092433" lon="6.3690058049"><ele>773.04</ele><time>2015-07-15T15:27:51Z</time></trkpt>
<trkpt lat="46.6004156973" lon="6.3690078165"><ele>773.52</ele><time>2015-07-15T15:28:13Z</time></trkpt>
<trkpt lat="46.6004177090" lon="6.3690084033"><ele>774.48</ele><time>2015-07-15T15:28:29Z</time></trkpt>
<trkpt lat="46.6004148591" lon="6.3690213114"><ele>774</ele><time>2015-07-15T15:28:49Z</time></trkpt>
<trkpt lat="46.6004084889" lon="6.3690137677"><ele>774</ele><time>2015-07-15T15:29:12Z</time></trkpt>
<trkpt lat="46.6004061420" lon="6.3690114208"><ele>774</ele><time>2015-07-15T15:29:32Z</time></trkpt>
<trkpt lat="46.6004074831" lon="6.3690123428"><ele>774.48</ele><time>2015-07-15T15:29:50Z</time></trkpt>
<trkpt lat="46.6004079022" lon="6.3690019492"><ele>774.48</ele><time>2015-07-15T15:30:09Z</time></trkpt>
<trkpt lat="46.6004077345" lon="6.3690023683"><ele>774.48</ele><time>2015-07-15T15:30:10Z</time></trkpt>
<trkpt lat="46.6004143562" lon="6.3690150250"><ele>774</ele><time>2015-07-15T15:30:12Z</time></trkpt>
<trkpt lat="46.6004397534" lon="6.3689824194"><ele>774.96</ele><time>2015-07-15T15:30:19Z</time></trkpt>
<trkpt lat="46.6004344728" lon="6.3689853530"><ele>775.44</ele><time>2015-07-15T15:30:32Z</time></trkpt>
<trkpt lat="46.6004452854" lon="6.3689415995"><ele>775.92</ele><time>2015-07-15T15:30:38Z</time></trkpt>
<trkpt lat="46.6004548408" lon="6.3687156234"><ele>777.84</ele><time>2015-07-15T15:30:49Z</time></trkpt>
<trkpt lat="46.6004900448" lon="6.3683186565"><ele>779.77</ele><time>2015-07-15T15:31:04Z</time></trkpt>
<trkpt lat="46.6004984267" lon="6.3679474220"><ele>780.73</ele><time>2015-07-15T15:31:16Z</time></trkpt>
<trkpt lat="46.6005650628" lon="6.3675600942"><ele>781.69</ele><time>2015-07-15T15:31:30Z</time></trkpt>
<trkpt lat="46.6006291006" lon="6.3670935575"><ele>784.57</ele><time>2015-07-15T15:31:44Z</time></trkpt>
<trkpt lat="46.6007011849" lon="6.3666335586"><ele>786.5</ele><time>2015-07-15T15:31:59Z</time></trkpt>
<trkpt lat="46.6007562540" lon="6.3662391901"><ele>789.38</ele><time>2015-07-15T15:32:12Z</time></trkpt>
<trkpt lat="46.6008072998" lon="6.3658728171"><ele>791.3</ele><time>2015-07-15T15:32:25Z</time></trkpt>
<trkpt lat="46.6008563340" lon="6.3655698113"><ele>794.67</ele><time>2015-07-15T15:32:37Z</time></trkpt>
<trkpt lat="46.6008997522" lon="6.3653195277"><ele>794.67</ele><time>2015-07-15T15:32:47Z</time></trkpt>
<trkpt lat="46.6009689029" lon="6.3650253229"><ele>797.07</ele><time>2015-07-15T15:33:00Z</time></trkpt>
<trkpt lat="46.6009979881" lon="6.3648859318"><ele>798.51</ele><time>2015-07-15T15:33:06Z</time></trkpt>
<trkpt lat="46.6010222118" lon="6.3647098280"><ele>805.24</ele><time>2015-07-15T15:33:18Z</time></trkpt>
<trkpt lat="46.6010287497" lon="6.3647281844"><ele>807.64</ele><time>2015-07-15T15:33:28Z</time></trkpt>
<trkpt lat="46.6010850761" lon="6.3644776493"><ele>808.61</ele><time>2015-07-15T15:33:42Z</time></trkpt>
<trkpt lat="46.6010972299" lon="6.3644261844"><ele>809.09</ele><time>2015-07-15T15:33:45Z</time></trkpt>
<trkpt lat="46.6011537239" lon="6.3641509227"><ele>811.97</ele><time>2015-07-15T15:33:57Z</time></trkpt>
<trkpt lat="46.6012044344" lon="6.3638922572"><ele>811.97</ele><time>2015-07-15T15:34:09Z</time></trkpt>
<trkpt lat="46.6011849046" lon="6.3636303227"><ele>813.41</ele><time>2015-07-15T15:34:20Z</time></trkpt>
<trkpt lat="46.6011015885" lon="6.3635490183"><ele>813.41</ele><time>2015-07-15T15:34:25Z</time></trkpt>
<trkpt lat="46.6008846648" lon="6.3635407202"><ele>814.85</ele><time>2015-07-15T15:34:37Z</time></trkpt>
<trkpt lat="46.6007921286" lon="6.3635713980"><ele>814.85</ele><time>2015-07-15T15:34:45Z</time></trkpt>
<trkpt lat="46.6007380653" lon="6.3636084460"><ele>815.34</ele><time>2015-07-15T15:34:49Z</time></trkpt>
<trkpt lat="46.6005729418" lon="6.3637282234"><ele>816.78</ele><time>2015-07-15T15:35:02Z</time></trkpt>
<trkpt lat="46.6004740354" lon="6.3638167363"><ele>818.22</ele><time>2015-07-15T15:35:10Z</time></trkpt>
<trkpt lat="46.6004285216" lon="6.3638552930"><ele>820.14</ele><time>2015-07-15T15:35:15Z</time></trkpt>
<trkpt lat="46.6002183035" lon="6.3639160618"><ele>825.91</ele><time>2015-07-15T15:35:28Z</time></trkpt>
<trkpt lat="46.6000245977" lon="6.3639074285"><ele>830.72</ele><time>2015-07-15T15:35:40Z</time></trkpt>
<trkpt lat="46.5998517629" lon="6.3639264554"><ele>834.08</ele><time>2015-07-15T15:35:52Z</time></trkpt>
<trkpt lat="46.5998078417" lon="6.3639509305"><ele>835.52</ele><time>2015-07-15T15:35:56Z</time></trkpt>
<trkpt lat="46.5996901598" lon="6.3641183171"><ele>840.33</ele><time>2015-07-15T15:36:08Z</time></trkpt>
<trkpt lat="46.5995602403" lon="6.3643615600"><ele>847.54</ele><time>2015-07-15T15:36:20Z</time></trkpt>
<trkpt lat="46.5994350985" lon="6.3645957503"><ele>851.38</ele><time>2015-07-15T15:36:32Z</time></trkpt>
<trkpt lat="46.5993161593" lon="6.3648314495"><ele>854.75</ele><time>2015-07-15T15:36:46Z</time></trkpt>
<trkpt lat="46.5992212761" lon="6.3649969082"><ele>856.67</ele><time>2015-07-15T15:36:57Z</time></trkpt>
<trkpt lat="46.5992131457" lon="6.3650170248"><ele>856.67</ele><time>2015-07-15T15:36:58Z</time></trkpt>
<trkpt lat="46.5990628581" lon="6.3652273268"><ele>858.59</ele><time>2015-07-15T15:37:12Z</time></trkpt>
<trkpt lat="46.5990022570" lon="6.3652787078"><ele>858.11</ele><time>2015-07-15T15:37:18Z</time></trkpt>
<trkpt lat="46.5989795420" lon="6.3652796298"><ele>857.63</ele><time>2015-07-15T15:37:20Z</time></trkpt>
<trkpt lat="46.5989555698" lon="6.3652730919"><ele>857.63</ele><time>2015-07-15T15:37:22Z</time></trkpt>
<trkpt lat="46.5989086311" lon="6.3652414922"><ele>856.19</ele><time>2015-07-15T15:37:26Z</time></trkpt>
<trkpt lat="46.5988048632" lon="6.3651133329"><ele>854.75</ele><time>2015-07-15T15:37:36Z</time></trkpt>
<trkpt lat="46.5987086389" lon="6.3649767078"><ele>854.27</ele><time>2015-07-15T15:37:46Z</time></trkpt>
<trkpt lat="46.5986839123" lon="6.3649420068"><ele>854.75</ele><time>2015-07-15T15:37:49Z</time></trkpt>
<trkpt lat="46.5985799767" lon="6.3647822477"><ele>856.67</ele><time>2015-07-15T15:38:01Z</time></trkpt>
<trkpt lat="46.5984836686" lon="6.3646151964"><ele>861</ele><time>2015-07-15T15:38:13Z</time></trkpt>
<trkpt lat="46.5983957425" lon="6.3644333091"><ele>862.92</ele><time>2015-07-15T15:38:25Z</time></trkpt>
<trkpt lat="46.5983891208" lon="6.3644185569"><ele>863.4</ele><time>2015-07-15T15:38:26Z</time></trkpt>
<trkpt lat="46.5982603747" lon="6.3642416149"><ele>867.73</ele><time>2015-07-15T15:38:38Z</time></trkpt>
<trkpt lat="46.5982177947" lon="6.3640937582"><ele>871.09</ele><time>2015-07-15T15:38:47Z</time></trkpt>
<trkpt lat="46.5981207322" lon="6.3638554607"><ele>874.94</ele><time>2015-07-15T15:39:00Z</time></trkpt>
<trkpt lat="46.5980323032" lon="6.3636882417"><ele>878.78</ele><time>2015-07-15T15:39:11Z</time></trkpt>
<trkpt lat="46.5978747234" lon="6.3635102939"><ele>884.07</ele><time>2015-07-15T15:39:24Z</time></trkpt>
<trkpt lat="46.5977654234" lon="6.3632939570"><ele>886.95</ele><time>2015-07-15T15:39:36Z</time></trkpt>
<trkpt lat="46.5977304708" lon="6.3631386403"><ele>888.4</ele><time>2015-07-15T15:39:45Z</time></trkpt>
<trkpt lat="46.5977268666" lon="6.3630608562"><ele>888.88</ele><time>2015-07-15T15:39:49Z</time></trkpt>
<trkpt lat="46.5976912435" lon="6.3628869317"><ele>889.36</ele><time>2015-07-15T15:39:59Z</time></trkpt>
<trkpt lat="46.5976702049" lon="6.3628093153"><ele>889.36</ele><time>2015-07-15T15:40:03Z</time></trkpt>
<trkpt lat="46.5975651797" lon="6.3625441119"><ele>887.91</ele><time>2015-07-15T15:40:15Z</time></trkpt>
<trkpt lat="46.5974912513" lon="6.3624322973"><ele>887.91</ele><time>2015-07-15T15:40:25Z</time></trkpt>
<trkpt lat="46.5974612441" lon="6.3623994403"><ele>886.95</ele><time>2015-07-15T15:40:28Z</time></trkpt>
<trkpt lat="46.5972136427" lon="6.3622830994"><ele>886.95</ele><time>2015-07-15T15:40:43Z</time></trkpt>
<trkpt lat="46.5969983116" lon="6.3621994480"><ele>885.51</ele><time>2015-07-15T15:40:56Z</time></trkpt>
<trkpt lat="46.5967995767" lon="6.3621442951"><ele>886.95</ele><time>2015-07-15T15:41:09Z</time></trkpt>
<trkpt lat="46.5966709983" lon="6.3619750645"><ele>889.84</ele><time>2015-07-15T15:41:22Z</time></trkpt>
<trkpt lat="46.5967367962" lon="6.3618274592"><ele>891.28</ele><time>2015-07-15T15:41:33Z</time></trkpt>
<trkpt lat="46.5968505386" lon="6.3618263695"><ele>893.68</ele><time>2015-07-15T15:41:44Z</time></trkpt>
<trkpt lat="46.5970019996" lon="6.3618267048"><ele>896.09</ele><time>2015-07-15T15:41:56Z</time></trkpt>
<trkpt lat="46.5970828850" lon="6.3618308958"><ele>898.49</ele><time>2015-07-15T15:42:08Z</time></trkpt>
<trkpt lat="46.5970699769" lon="6.3618142996"><ele>896.09</ele><time>2015-07-15T15:42:26Z</time></trkpt>
<trkpt lat="46.5971081983" lon="6.3618106116"><ele>896.57</ele><time>2015-07-15T15:42:36Z</time></trkpt>
<trkpt lat="46.5972484276" lon="6.3618118688"><ele>899.93</ele><time>2015-07-15T15:42:48Z</time></trkpt>
<trkpt lat="46.5973803587" lon="6.3618185744"><ele>906.66</ele><time>2015-07-15T15:42:59Z</time></trkpt>
<trkpt lat="46.5975559596" lon="6.3618139643"><ele>912.43</ele><time>2015-07-15T15:43:11Z</time></trkpt>
<trkpt lat="46.5977212507" lon="6.3618056662"><ele>914.83</ele><time>2015-07-15T15:43:22Z</time></trkpt>
<trkpt lat="46.5978489909" lon="6.3617992122"><ele>915.79</ele><time>2015-07-15T15:43:32Z</time></trkpt>
<trkpt lat="46.5980299562" lon="6.3617875613"><ele>921.08</ele><time>2015-07-15T15:43:45Z</time></trkpt>
<trkpt lat="46.5981028788" lon="6.3617848791"><ele>923.96</ele><time>2015-07-15T15:43:50Z</time></trkpt>
<trkpt lat="46.5983284358" lon="6.3617931772"><ele>931.17</ele><time>2015-07-15T15:44:03Z</time></trkpt>
<trkpt lat="46.5985434316" lon="6.3617010601"><ele>931.65</ele><time>2015-07-15T15:44:16Z</time></trkpt>
<trkpt lat="46.5986537375" lon="6.3614329230"><ele>925.89</ele><time>2015-07-15T15:44:29Z</time></trkpt>
<trkpt lat="46.5987579245" lon="6.3610403147"><ele>916.27</ele><time>2015-07-15T15:44:45Z</time></trkpt>
<trkpt lat="46.5988246445" lon="6.3607150968"><ele>916.27</ele><time>2015-07-15T15:45:01Z</time></trkpt>
<trkpt lat="46.5988733433" lon="6.3604324590"><ele>914.83</ele><time>2015-07-15T15:45:14Z</time></trkpt>
<trkpt lat="46.5989535581" lon="6.3601943292"><ele>915.31</ele><time>2015-07-15T15:45:26Z</time></trkpt>
<trkpt lat="46.5990490280" lon="6.3599434588"><ele>916.27</ele><time>2015-07-15T15:45:40Z</time></trkpt>
<trkpt lat="46.5991500299" lon="6.3597938418"><ele>916.27</ele><time>2015-07-15T15:45:51Z</time></trkpt>
<trkpt lat="46.5992511157" lon="6.3595604897"><ele>915.31</ele><time>2015-07-15T15:46:03Z</time></trkpt>
<trkpt lat="46.5993383713" lon="6.3593821228"><ele>916.27</ele><time>2015-07-15T15:46:14Z</time></trkpt>
<trkpt lat="46.5994585678" lon="6.3591598347"><ele>918.2</ele><time>2015-07-15T15:46:27Z</time></trkpt>
<trkpt lat="46.5995388664" lon="6.3590234611"><ele>918.2</ele><time>2015-07-15T15:46:37Z</time></trkpt>
<trkpt lat="46.5996640082" lon="6.3588630315"><ele>918.2</ele><time>2015-07-15T15:46:50Z</time></trkpt>
<trkpt lat="46.5998103563" lon="6.3587606046"><ele>921.08</ele><time>2015-07-15T15:47:00Z</time></trkpt>
<trkpt lat="46.5999020543" lon="6.3587987423"><ele>924.93</ele><time>2015-07-15T15:47:05Z</time></trkpt>
<trkpt lat="46.5999491606" lon="6.3589025941"><ele>926.85</ele><time>2015-07-15T15:47:11Z</time></trkpt>
<trkpt lat="46.5999838617" lon="6.3590328488"><ele>927.81</ele><time>2015-07-15T15:47:19Z</time></trkpt>
<trkpt lat="46.6000069119" lon="6.3591119740"><ele>929.25</ele><time>2015-07-15T15:47:23Z</time></trkpt>
<trkpt lat="46.6000955924" lon="6.3592667878"><ele>935.02</ele><time>2015-07-15T15:47:33Z</time></trkpt>
<trkpt lat="46.6001448780" lon="6.3592682127"><ele>935.98</ele><time>2015-07-15T15:47:37Z</time></trkpt>
<trkpt lat="46.6002300382" lon="6.3591377903"><ele>939.35</ele><time>2015-07-15T15:47:49Z</time></trkpt>
<trkpt lat="46.6001736280" lon="6.3589315116"><ele>945.59</ele><time>2015-07-15T15:48:02Z</time></trkpt>
<trkpt lat="46.6001435369" lon="6.3587943837"><ele>948.48</ele><time>2015-07-15T15:48:10Z</time></trkpt>
<trkpt lat="46.6001370829" lon="6.3587028533"><ele>949.92</ele><time>2015-07-15T15:48:16Z</time></trkpt>
<trkpt lat="46.6001613904" lon="6.3585160207"><ele>954.73</ele><time>2015-07-15T15:48:28Z</time></trkpt>
<trkpt lat="46.6001830157" lon="6.3583886158"><ele>959.53</ele><time>2015-07-15T15:48:37Z</time></trkpt>
<trkpt lat="46.6001794115" lon="6.3582361490"><ele>965.78</ele><time>2015-07-15T15:48:45Z</time></trkpt>
<trkpt lat="46.6001391783" lon="6.3581012841"><ele>967.7</ele><time>2015-07-15T15:48:50Z</time></trkpt>
<trkpt lat="46.5999901481" lon="6.3580268528"><ele>972.51</ele><time>2015-07-15T15:49:02Z</time></trkpt>
<trkpt lat="46.5998831950" lon="6.3580778148"><ele>972.99</ele><time>2015-07-15T15:49:12Z</time></trkpt>
<trkpt lat="46.5998174809" lon="6.3581191376"><ele>971.55</ele><time>2015-07-15T15:49:21Z</time></trkpt>
<trkpt lat="46.5997051634" lon="6.3581794873"><ele>969.63</ele><time>2015-07-15T15:49:31Z</time></trkpt>
<trkpt lat="46.5996466577" lon="6.3582304493"><ele>969.15</ele><time>2015-07-15T15:49:36Z</time></trkpt>
<trkpt lat="46.5994257946" lon="6.3582973368"><ele>968.18</ele><time>2015-07-15T15:49:48Z</time></trkpt>
<trkpt lat="46.5992639400" lon="6.3583630510"><ele>967.7</ele><time>2015-07-15T15:49:59Z</time></trkpt>
<trkpt lat="46.5992102958" lon="6.3583615422"><ele>967.22</ele><time>2015-07-15T15:50:02Z</time></trkpt>
<trkpt lat="46.5991211962" lon="6.3584089000"><ele>966.74</ele><time>2015-07-15T15:50:07Z</time></trkpt>
<trkpt lat="46.5988858324" lon="6.3586349599"><ele>963.86</ele><time>2015-07-15T15:50:23Z</time></trkpt>
<trkpt lat="46.5986446850" lon="6.3587688189"><ele>966.26</ele><time>2015-07-15T15:50:40Z</time></trkpt>
<trkpt lat="46.5984744485" lon="6.3587523904"><ele>969.63</ele><time>2015-07-15T15:50:52Z</time></trkpt>
<trkpt lat="46.5982888732" lon="6.3587456010"><ele>971.55</ele><time>2015-07-15T15:51:05Z</time></trkpt>
<trkpt lat="46.5980974305" lon="6.3587146718"><ele>975.88</ele><time>2015-07-15T15:51:19Z</time></trkpt>
<trkpt lat="46.5978917386" lon="6.3587138336"><ele>980.68</ele><time>2015-07-15T15:51:32Z</time></trkpt>
<trkpt lat="46.5976298042" lon="6.3588281628"><ele>981.64</ele><time>2015-07-15T15:51:49Z</time></trkpt>
<trkpt lat="46.5974775050" lon="6.3587344531"><ele>984.05</ele><time>2015-07-15T15:52:03Z</time></trkpt>
<trkpt lat="46.5973885730" lon="6.3586287573"><ele>984.05</ele><time>2015-07-15T15:52:16Z</time></trkpt>
<trkpt lat="46.5973783471" lon="6.3586363010"><ele>983.57</ele><time>2015-07-15T15:52:26Z</time></trkpt>
<trkpt lat="46.5973721445" lon="6.3586382288"><ele>983.57</ele><time>2015-07-15T15:52:35Z</time></trkpt>
<trkpt lat="46.5973621700" lon="6.3585995045"><ele>985.49</ele><time>2015-07-15T15:53:01Z</time></trkpt>
<trkpt lat="46.5973578114" lon="6.3586046174"><ele>987.41</ele><time>2015-07-15T15:53:22Z</time></trkpt>
<trkpt lat="46.5973433107" lon="6.3586043660"><ele>988.85</ele><time>2015-07-15T15:53:49Z</time></trkpt>
<trkpt lat="46.5973557159" lon="6.3586013485"><ele>987.41</ele><time>2015-07-15T15:54:13Z</time></trkpt>
<trkpt lat="46.5973652713" lon="6.3585808128"><ele>985.49</ele><time>2015-07-15T15:54:55Z</time></trkpt>
<trkpt lat="46.5973703843" lon="6.3585641328"><ele>983.57</ele><time>2015-07-15T15:55:17Z</time></trkpt>
<trkpt lat="46.5973661933" lon="6.3585729338"><ele>985.01</ele><time>2015-07-15T15:55:37Z</time></trkpt>
<trkpt lat="46.5973829571" lon="6.3585529011"><ele>984.53</ele><time>2015-07-15T15:55:49Z</time></trkpt>
<trkpt lat="46.5974072646" lon="6.3585462794"><ele>984.53</ele><time>2015-07-15T15:55:53Z</time></trkpt>
<trkpt lat="46.5975457337" lon="6.3584722672"><ele>984.05</ele><time>2015-07-15T15:56:04Z</time></trkpt>
<trkpt lat="46.5977319796" lon="6.3583649788"><ele>984.05</ele><time>2015-07-15T15:56:16Z</time></trkpt>
<trkpt lat="46.5979370009" lon="6.3582874462"><ele>985.97</ele><time>2015-07-15T15:56:28Z</time></trkpt>
<trkpt lat="46.5981181338" lon="6.3582028728"><ele>990.78</ele><time>2015-07-15T15:56:39Z</time></trkpt>
<trkpt lat="46.5982748754" lon="6.3580651581"><ele>993.66</ele><time>2015-07-15T15:56:51Z</time></trkpt>
<trkpt lat="46.5983913001" lon="6.3578693569"><ele>998.95</ele><time>2015-07-15T15:57:03Z</time></trkpt>
<trkpt lat="46.5984921344" lon="6.3576571271"><ele>1002.79</ele><time>2015-07-15T15:57:14Z</time></trkpt>
<trkpt lat="46.5985866822" lon="6.3573955279"><ele>1008.08</ele><time>2015-07-15T15:57:27Z</time></trkpt>
<trkpt lat="46.5986639634" lon="6.3570254669"><ele>1008.08</ele><time>2015-07-15T15:57:43Z</time></trkpt>
<trkpt lat="46.5987256542" lon="6.3567499537"><ele>1010.48</ele><time>2015-07-15T15:57:57Z</time></trkpt>
<trkpt lat="46.5988108981" lon="6.3566044439"><ele>1013.37</ele><time>2015-07-15T15:58:08Z</time></trkpt>
<trkpt lat="46.5989257302" lon="6.3564010989"><ele>1016.73</ele><time>2015-07-15T15:58:20Z</time></trkpt>
<trkpt lat="46.5990705695" lon="6.3562859315"><ele>1019.62</ele><time>2015-07-15T15:58:31Z</time></trkpt>
<trkpt lat="46.5992275625" lon="6.3562257495"><ele>1019.13</ele><time>2015-07-15T15:58:43Z</time></trkpt>
<trkpt lat="46.5993833821" lon="6.3561529107"><ele>1019.62</ele><time>2015-07-15T15:58:56Z</time></trkpt>
<trkpt lat="46.5995627549" lon="6.3560451195"><ele>1022.02</ele><time>2015-07-15T15:59:10Z</time></trkpt>
<trkpt lat="46.5997698717" lon="6.3558963407"><ele>1024.42</ele><time>2015-07-15T15:59:25Z</time></trkpt>
<trkpt lat="46.5998988692" lon="6.3557188958"><ele>1027.79</ele><time>2015-07-15T15:59:38Z</time></trkpt>
<trkpt lat="46.5999076702" lon="6.3557079993"><ele>1028.27</ele><time>2015-07-15T15:59:39Z</time></trkpt>
<trkpt lat="46.6000418644" lon="6.3555242680"><ele>1029.23</ele><time>2015-07-15T15:59:52Z</time></trkpt>
<trkpt lat="46.6001645755" lon="6.3552681170"><ele>1032.59</ele><time>2015-07-15T16:00:07Z</time></trkpt>
<trkpt lat="46.6002369113" lon="6.3550791051"><ele>1031.15</ele><time>2015-07-15T16:00:17Z</time></trkpt>
<trkpt lat="46.6002783179" lon="6.3549580704"><ele>1030.67</ele><time>2015-07-15T16:00:23Z</time></trkpt>
<trkpt lat="46.6003725305" lon="6.3548097108"><ele>1032.11</ele><time>2015-07-15T16:00:34Z</time></trkpt>
<trkpt lat="46.6003802419" lon="6.3548052683"><ele>1032.59</ele><time>2015-07-15T16:00:35Z</time></trkpt>
<trkpt lat="46.6004372388" lon="6.3548037596"><ele>1034.04</ele><time>2015-07-15T16:00:39Z</time></trkpt>
<trkpt lat="46.6005657334" lon="6.3548284024"><ele>1037.88</ele><time>2015-07-15T16:00:46Z</time></trkpt>
<trkpt lat="46.6006233171" lon="6.3548496086"><ele>1039.8</ele><time>2015-07-15T16:00:50Z</time></trkpt>
<trkpt lat="46.6008048691" lon="6.3550663646"><ele>1046.53</ele><time>2015-07-15T16:01:04Z</time></trkpt>
<trkpt lat="46.6009198688" lon="6.3552345056"><ele>1047.49</ele><time>2015-07-15T16:01:15Z</time></trkpt>
<trkpt lat="46.6010896862" lon="6.3554380182"><ele>1049.42</ele><time>2015-07-15T16:01:29Z</time></trkpt>
<trkpt lat="46.6012575757" lon="6.3555603102"><ele>1051.82</ele><time>2015-07-15T16:01:41Z</time></trkpt>
<trkpt lat="46.6014071926" lon="6.3556073327"><ele>1051.82</ele><time>2015-07-15T16:01:52Z</time></trkpt>
<trkpt lat="46.6015278082" lon="6.3555187359"><ele>1051.82</ele><time>2015-07-15T16:02:03Z</time></trkpt>
<trkpt lat="46.6016753297" lon="6.3554124534"><ele>1053.26</ele><time>2015-07-15T16:02:13Z</time></trkpt>
<trkpt lat="46.6017620824" lon="6.3553633355"><ele>1053.74</ele><time>2015-07-15T16:02:21Z</time></trkpt>
<trkpt lat="46.6019095201" lon="6.3554634154"><ele>1055.18</ele><time>2015-07-15T16:02:32Z</time></trkpt>
<trkpt lat="46.6020064149" lon="6.3556704484"><ele>1059.51</ele><time>2015-07-15T16:02:45Z</time></trkpt>
<trkpt lat="46.6020176467" lon="6.3556753937"><ele>1059.51</ele><time>2015-07-15T16:02:46Z</time></trkpt>
<trkpt lat="46.6021327302" lon="6.3556517567"><ele>1059.99</ele><time>2015-07-15T16:02:55Z</time></trkpt>
<trkpt lat="46.6021581274" lon="6.3555893116"><ele>1059.99</ele><time>2015-07-15T16:03:01Z</time></trkpt>
<trkpt lat="46.6021138709" lon="6.3553474098"><ele>1060.47</ele><time>2015-07-15T16:03:14Z</time></trkpt>
<trkpt lat="46.6020349972" lon="6.3551396225"><ele>1068.16</ele><time>2015-07-15T16:03:27Z</time></trkpt>
<trkpt lat="46.6020184848" lon="6.3551108725"><ele>1070.08</ele><time>2015-07-15T16:03:29Z</time></trkpt>
<trkpt lat="46.6019847896" lon="6.3550281432"><ele>1075.85</ele><time>2015-07-15T16:03:34Z</time></trkpt>
<trkpt lat="46.6018467396" lon="6.3549194299"><ele>1086.43</ele><time>2015-07-15T16:03:47Z</time></trkpt>
<trkpt lat="46.6016854718" lon="6.3548340183"><ele>1090.75</ele><time>2015-07-15T16:03:59Z</time></trkpt>
<trkpt lat="46.6016451549" lon="6.3547994848"><ele>1091.71</ele><time>2015-07-15T16:04:02Z</time></trkpt>
<trkpt lat="46.6015606653" lon="6.3545928709"><ele>1090.75</ele><time>2015-07-15T16:04:13Z</time></trkpt>
<trkpt lat="46.6015371121" lon="6.3544967305"><ele>1090.75</ele><time>2015-07-15T16:04:18Z</time></trkpt>
<trkpt lat="46.6015126370" lon="6.3542523980"><ele>1093.64</ele><time>2015-07-15T16:04:31Z</time></trkpt>
<trkpt lat="46.6014862340" lon="6.3539984263"><ele>1096.52</ele><time>2015-07-15T16:04:43Z</time></trkpt>
<trkpt lat="46.6014342662" lon="6.3537487295"><ele>1100.37</ele><time>2015-07-15T16:04:56Z</time></trkpt>
<trkpt lat="46.6013461724" lon="6.3535186462"><ele>1104.21</ele><time>2015-07-15T16:05:08Z</time></trkpt>
<trkpt lat="46.6013021674" lon="6.3533334900"><ele>1110.46</ele><time>2015-07-15T16:05:21Z</time></trkpt>
<trkpt lat="46.6012753453" lon="6.3532236032"><ele>1113.82</ele><time>2015-07-15T16:05:32Z</time></trkpt>
<trkpt lat="46.6012619343" lon="6.3531433884"><ele>1117.19</ele><time>2015-07-15T16:05:37Z</time></trkpt>
<trkpt lat="46.6012218688" lon="6.3530420512"><ele>1121.03</ele><time>2015-07-15T16:05:44Z</time></trkpt>
<trkpt lat="46.6010757722" lon="6.3528936915"><ele>1120.55</ele><time>2015-07-15T16:05:55Z</time></trkpt>
<trkpt lat="46.6008458566" lon="6.3528123032"><ele>1112.38</ele><time>2015-07-15T16:06:10Z</time></trkpt>
<trkpt lat="46.6006455291" lon="6.3526042644"><ele>1105.65</ele><time>2015-07-15T16:06:25Z</time></trkpt>
<trkpt lat="46.6005256679" lon="6.3524001651"><ele>1106.13</ele><time>2015-07-15T16:06:39Z</time></trkpt>
<trkpt lat="46.6004089918" lon="6.3521871809"><ele>1108.06</ele><time>2015-07-15T16:06:55Z</time></trkpt>
<trkpt lat="46.6003319621" lon="6.3520014379"><ele>1109.02</ele><time>2015-07-15T16:07:08Z</time></trkpt>
<trkpt lat="46.6002002824" lon="6.3518021163"><ele>1109.98</ele><time>2015-07-15T16:07:23Z</time></trkpt>
<trkpt lat="46.6000585444" lon="6.3518042117"><ele>1108.54</ele><time>2015-07-15T16:07:34Z</time></trkpt>
<trkpt lat="46.5999140404" lon="6.3518433552"><ele>1107.1</ele><time>2015-07-15T16:07:47Z</time></trkpt>
<trkpt lat="46.5997162275" lon="6.3518818282"><ele>1108.06</ele><time>2015-07-15T16:08:02Z</time></trkpt>
<trkpt lat="46.5995516907" lon="6.3519629650"><ele>1108.06</ele><time>2015-07-15T16:08:15Z</time></trkpt>
<trkpt lat="46.5993497707" lon="6.3521018531"><ele>1107.1</ele><time>2015-07-15T16:08:31Z</time></trkpt>
<trkpt lat="46.5991988964" lon="6.3521825708"><ele>1109.98</ele><time>2015-07-15T16:08:44Z</time></trkpt>
<trkpt lat="46.5990144946" lon="6.3522511348"><ele>1113.82</ele><time>2015-07-15T16:08:58Z</time></trkpt>
<trkpt lat="46.5987703297" lon="6.3523444254"><ele>1115.27</ele><time>2015-07-15T16:09:14Z</time></trkpt>
<trkpt lat="46.5985636320" lon="6.3524089660"><ele>1115.75</ele><time>2015-07-15T16:09:29Z</time></trkpt>
<trkpt lat="46.5983356442" lon="6.3524839841"><ele>1118.63</ele><time>2015-07-15T16:09:45Z</time></trkpt>
<trkpt lat="46.5981277730" lon="6.3526297454"><ele>1118.63</ele><time>2015-07-15T16:10:01Z</time></trkpt>
<trkpt lat="46.5979560278" lon="6.3527855650"><ele>1121.03</ele><time>2015-07-15T16:10:16Z</time></trkpt>
<trkpt lat="46.5977650881" lon="6.3529469166"><ele>1122.48</ele><time>2015-07-15T16:10:32Z</time></trkpt>
<trkpt lat="46.5976119507" lon="6.3530584797"><ele>1121.52</ele><time>2015-07-15T16:10:45Z</time></trkpt>
<trkpt lat="46.5974445641" lon="6.3531621639"><ele>1120.55</ele><time>2015-07-15T16:10:58Z</time></trkpt>
<trkpt lat="46.5972520318" lon="6.3532412890"><ele>1121.03</ele><time>2015-07-15T16:11:13Z</time></trkpt>
<trkpt lat="46.5971204359" lon="6.3532169815"><ele>1123.92</ele><time>2015-07-15T16:11:24Z</time></trkpt>
<trkpt lat="46.5970517881" lon="6.3531657681"><ele>1125.36</ele><time>2015-07-15T16:11:33Z</time></trkpt>
<trkpt lat="46.5969204437" lon="6.3530554622"><ele>1125.84</ele><time>2015-07-15T16:11:45Z</time></trkpt>
<trkpt lat="46.5968761873" lon="6.3530150615"><ele>1127.28</ele><time>2015-07-15T16:11:49Z</time></trkpt>
<trkpt lat="46.5968396422" lon="6.3529863115"><ele>1128.73</ele><time>2015-07-15T16:11:52Z</time></trkpt>
<trkpt lat="46.5967497043" lon="6.3528946135"><ele>1132.57</ele><time>2015-07-15T16:12:00Z</time></trkpt>
<trkpt lat="46.5965979081" lon="6.3527148217"><ele>1138.82</ele><time>2015-07-15T16:12:14Z</time></trkpt>
<trkpt lat="46.5964563377" lon="6.3525908533"><ele>1142.18</ele><time>2015-07-15T16:12:24Z</time></trkpt>
<trkpt lat="46.5962833352" lon="6.3524482772"><ele>1149.39</ele><time>2015-07-15T16:12:38Z</time></trkpt>
<trkpt lat="46.5962223988" lon="6.3524027634"><ele>1152.76</ele><time>2015-07-15T16:12:43Z</time></trkpt>
<trkpt lat="46.5960706864" lon="6.3522690721"><ele>1158.05</ele><time>2015-07-15T16:12:55Z</time></trkpt>
<trkpt lat="46.5959416050" lon="6.3521314412"><ele>1160.45</ele><time>2015-07-15T16:13:06Z</time></trkpt>
<trkpt lat="46.5958283655" lon="6.3519575167"><ele>1160.93</ele><time>2015-07-15T16:13:19Z</time></trkpt>
<trkpt lat="46.5958031360" lon="6.3519151043"><ele>1160.93</ele><time>2015-07-15T16:13:22Z</time></trkpt>
<trkpt lat="46.5956497472" lon="6.3516794890"><ele>1162.37</ele><time>2015-07-15T16:13:37Z</time></trkpt>
<trkpt lat="46.5955771599" lon="6.3515470549"><ele>1161.89</ele><time>2015-07-15T16:13:46Z</time></trkpt>
<trkpt lat="46.5955453925" lon="6.3514820952"><ele>1161.89</ele><time>2015-07-15T16:13:50Z</time></trkpt>
<trkpt lat="46.5954019781" lon="6.3512878027"><ele>1163.81</ele><time>2015-07-15T16:14:03Z</time></trkpt>
<trkpt lat="46.5953726415" lon="6.3512545265"><ele>1164.77</ele><time>2015-07-15T16:14:06Z</time></trkpt>
<trkpt lat="46.5952819493" lon="6.3510738127"><ele>1167.66</ele><time>2015-07-15T16:14:18Z</time></trkpt>
<trkpt lat="46.5951673687" lon="6.3508806098"><ele>1171.5</ele><time>2015-07-15T16:14:31Z</time></trkpt>
<trkpt lat="46.5950716473" lon="6.3506688830"><ele>1173.91</ele><time>2015-07-15T16:14:44Z</time></trkpt>
<trkpt lat="46.5949958749" lon="6.3504699804"><ele>1175.83</ele><time>2015-07-15T16:14:56Z</time></trkpt>
<trkpt lat="46.5949429013" lon="6.3502713293"><ele>1179.67</ele><time>2015-07-15T16:15:08Z</time></trkpt>
<trkpt lat="46.5949073620" lon="6.3500406593"><ele>1181.6</ele><time>2015-07-15T16:15:20Z</time></trkpt>
<trkpt lat="46.5948854852" lon="6.3498163596"><ele>1184.96</ele><time>2015-07-15T16:15:30Z</time></trkpt>
<trkpt lat="46.5948832221" lon="6.3497971650"><ele>1184.96</ele><time>2015-07-15T16:15:31Z</time></trkpt>
<trkpt lat="46.5948946215" lon="6.3495546766"><ele>1186.88</ele><time>2015-07-15T16:15:44Z</time></trkpt>
<trkpt lat="46.5948705655" lon="6.3494166266"><ele>1187.37</ele><time>2015-07-15T16:15:51Z</time></trkpt>
<trkpt lat="46.5948537178" lon="6.3491401915"><ele>1191.21</ele><time>2015-07-15T16:16:04Z</time></trkpt>
<trkpt lat="46.5948154964" lon="6.3489922509"><ele>1194.09</ele><time>2015-07-15T16:16:12Z</time></trkpt>
<trkpt lat="46.5947215352" lon="6.3488022331"><ele>1202.75</ele><time>2015-07-15T16:16:24Z</time></trkpt>
<trkpt lat="46.5946393926" lon="6.3486444019"><ele>1205.15</ele><time>2015-07-15T16:16:35Z</time></trkpt>
<trkpt lat="46.5945904423" lon="6.3485356886"><ele>1206.11</ele><time>2015-07-15T16:16:43Z</time></trkpt>
<trkpt lat="46.5945103113" lon="6.3483951241"><ele>1207.07</ele><time>2015-07-15T16:16:54Z</time></trkpt>
<trkpt lat="46.5944892727" lon="6.3483453356"><ele>1207.55</ele><time>2015-07-15T16:16:59Z</time></trkpt>
<trkpt lat="46.5944101475" lon="6.3481729198"><ele>1209.96</ele><time>2015-07-15T16:17:08Z</time></trkpt>
<trkpt lat="46.5942648053" lon="6.3479318563"><ele>1216.21</ele><time>2015-07-15T16:17:21Z</time></trkpt>
<trkpt lat="46.5942580998" lon="6.3479229715"><ele>1216.69</ele><time>2015-07-15T16:17:22Z</time></trkpt>
<trkpt lat="46.5942195430" lon="6.3478784636"><ele>1218.13</ele><time>2015-07-15T16:17:26Z</time></trkpt>
<trkpt lat="46.5940900426" lon="6.3477550820"><ele>1221.49</ele><time>2015-07-15T16:17:39Z</time></trkpt>
<trkpt lat="46.5939763840" lon="6.3476095721"><ele>1221.97</ele><time>2015-07-15T16:17:52Z</time></trkpt>
<trkpt lat="46.5939577762" lon="6.3475762960"><ele>1221.97</ele><time>2015-07-15T16:17:54Z</time></trkpt>
<trkpt lat="46.5939097479" lon="6.3474503998"><ele>1219.57</ele><time>2015-07-15T16:18:07Z</time></trkpt>
<trkpt lat="46.5939127654" lon="6.3474264275"><ele>1213.8</ele><time>2015-07-15T16:18:27Z</time></trkpt>
<trkpt lat="46.5938849375" lon="6.3473648205"><ele>1201.79</ele><time>2015-07-15T16:18:51Z</time></trkpt>
<trkpt lat="46.5938705206" lon="6.3473313767"><ele>1200.82</ele><time>2015-07-15T16:19:06Z</time></trkpt>
<trkpt lat="46.5938281920" lon="6.3471924886"><ele>1204.67</ele><time>2015-07-15T16:19:17Z</time></trkpt>
<trkpt lat="46.5938051417" lon="6.3471182249"><ele>1206.11</ele><time>2015-07-15T16:19:21Z</time></trkpt>
<trkpt lat="46.5937829297" lon="6.3470746391"><ele>1206.59</ele><time>2015-07-15T16:19:24Z</time></trkpt>
<trkpt lat="46.5936975181" lon="6.3468399458"><ele>1207.07</ele><time>2015-07-15T16:19:37Z</time></trkpt>
<trkpt lat="46.5936428681" lon="6.3467145525"><ele>1209.96</ele><time>2015-07-15T16:19:45Z</time></trkpt>
<trkpt lat="46.5936152916" lon="6.3466200046"><ele>1211.4</ele><time>2015-07-15T16:19:50Z</time></trkpt>
<trkpt lat="46.5935000405" lon="6.3463636022"><ele>1215.72</ele><time>2015-07-15T16:20:03Z</time></trkpt>
<trkpt lat="46.5934083425" lon="6.3462262228"><ele>1222.45</ele><time>2015-07-15T16:20:14Z</time></trkpt>
<trkpt lat="46.5933441371" lon="6.3461125642"><ele>1224.86</ele><time>2015-07-15T16:20:25Z</time></trkpt>
<trkpt lat="46.5931868926" lon="6.3459115662"><ele>1228.7</ele><time>2015-07-15T16:20:37Z</time></trkpt>
<trkpt lat="46.5930632595" lon="6.3457214646"><ele>1233.03</ele><time>2015-07-15T16:20:48Z</time></trkpt>
<trkpt lat="46.5929977968" lon="6.3455218077"><ele>1236.87</ele><time>2015-07-15T16:20:59Z</time></trkpt>
<trkpt lat="46.5928592440" lon="6.3452550955"><ele>1244.08</ele><time>2015-07-15T16:21:11Z</time></trkpt>
<trkpt lat="46.5927900095" lon="6.3450992759"><ele>1248.41</ele><time>2015-07-15T16:21:20Z</time></trkpt>
<trkpt lat="46.5927157458" lon="6.3449772354"><ele>1252.25</ele><time>2015-07-15T16:21:30Z</time></trkpt>
<trkpt lat="46.5925944597" lon="6.3447422907"><ele>1256.58</ele><time>2015-07-15T16:21:45Z</time></trkpt>
<trkpt lat="46.5924882609" lon="6.3445210923"><ele>1258.5</ele><time>2015-07-15T16:21:57Z</time></trkpt>
<trkpt lat="46.5924114827" lon="6.3443628419"><ele>1258.02</ele><time>2015-07-15T16:22:04Z</time></trkpt>
<trkpt lat="46.5923660528" lon="6.3442811184"><ele>1259.46</ele><time>2015-07-15T16:22:08Z</time></trkpt>
<trkpt lat="46.5922321938" lon="6.3440292422"><ele>1262.35</ele><time>2015-07-15T16:22:23Z</time></trkpt>
<trkpt lat="46.5921218880" lon="6.3437951356"><ele>1264.27</ele><time>2015-07-15T16:22:36Z</time></trkpt>
<trkpt lat="46.5920267534" lon="6.3435994182"><ele>1261.87</ele><time>2015-07-15T16:22:46Z</time></trkpt>
<trkpt lat="46.5919636376" lon="6.3434684929"><ele>1265.71</ele><time>2015-07-15T16:22:58Z</time></trkpt>
<trkpt lat="46.5918946546" lon="6.3433272578"><ele>1268.6</ele><time>2015-07-15T16:23:10Z</time></trkpt>
<trkpt lat="46.5918229055" lon="6.3431398384"><ele>1269.56</ele><time>2015-07-15T16:23:20Z</time></trkpt>
<trkpt lat="46.5917323809" lon="6.3428791612"><ele>1271</ele><time>2015-07-15T16:23:32Z</time></trkpt>
<trkpt lat="46.5916273557" lon="6.3426489942"><ele>1274.36</ele><time>2015-07-15T16:23:45Z</time></trkpt>
<trkpt lat="46.5915478114" lon="6.3424096070"><ele>1278.69</ele><time>2015-07-15T16:23:58Z</time></trkpt>
<trkpt lat="46.5914674290" lon="6.3421841338"><ele>1281.57</ele><time>2015-07-15T16:24:10Z</time></trkpt>
<trkpt lat="46.5913581289" lon="6.3420343492"><ele>1283.5</ele><time>2015-07-15T16:24:20Z</time></trkpt>
<trkpt lat="46.5911902394" lon="6.3418134861"><ele>1279.65</ele><time>2015-07-15T16:24:33Z</time></trkpt>
<trkpt lat="46.5910935961" lon="6.3417216204"><ele>1276.29</ele><time>2015-07-15T16:24:43Z</time></trkpt>
<trkpt lat="46.5909710526" lon="6.3416511286"><ele>1275.33</ele><time>2015-07-15T16:24:53Z</time></trkpt>
<trkpt lat="46.5908751637" lon="6.3415156770"><ele>1274.85</ele><time>2015-07-15T16:25:02Z</time></trkpt>
<trkpt lat="46.5908075217" lon="6.3414105680"><ele>1275.81</ele><time>2015-07-15T16:25:14Z</time></trkpt>
<trkpt lat="46.5907619242" lon="6.3413244020"><ele>1275.81</ele><time>2015-07-15T16:25:25Z</time></trkpt>
<trkpt lat="46.5907068551" lon="6.3412273396"><ele>1275.81</ele><time>2015-07-15T16:25:37Z</time></trkpt>
<trkpt lat="46.5906268079" lon="6.3410733640"><ele>1275.81</ele><time>2015-07-15T16:25:49Z</time></trkpt>
<trkpt lat="46.5905152448" lon="6.3408024609"><ele>1273.4</ele><time>2015-07-15T16:26:01Z</time></trkpt>
<trkpt lat="46.5904165898" lon="6.3406102639"><ele>1273.88</ele><time>2015-07-15T16:26:13Z</time></trkpt>
<trkpt lat="46.5903461818" lon="6.3404611498"><ele>1274.36</ele><time>2015-07-15T16:26:22Z</time></trkpt>
<trkpt lat="46.5903811343" lon="6.3402296416"><ele>1279.65</ele><time>2015-07-15T16:26:34Z</time></trkpt>
<trkpt lat="46.5904008318" lon="6.3402236067"><ele>1280.13</ele><time>2015-07-15T16:26:36Z</time></trkpt>
<trkpt lat="46.5905259736" lon="6.3403225970"><ele>1281.57</ele><time>2015-07-15T16:26:48Z</time></trkpt>
<trkpt lat="46.5905457549" lon="6.3403641712"><ele>1282.06</ele><time>2015-07-15T16:26:51Z</time></trkpt>
<trkpt lat="46.5907220263" lon="6.3403631654"><ele>1285.42</ele><time>2015-07-15T16:27:04Z</time></trkpt>
<trkpt lat="46.5908193402" lon="6.3402541168"><ele>1286.38</ele><time>2015-07-15T16:27:13Z</time></trkpt>
<trkpt lat="46.5909531154" lon="6.3400577288"><ele>1286.38</ele><time>2015-07-15T16:27:26Z</time></trkpt>
<trkpt lat="46.5910598170" lon="6.3397864904"><ele>1288.3</ele><time>2015-07-15T16:27:40Z</time></trkpt>
<trkpt lat="46.5911102761" lon="6.3396263961"><ele>1287.82</ele><time>2015-07-15T16:27:48Z</time></trkpt>
<trkpt lat="46.5911531914" lon="6.3393119909"><ele>1287.82</ele><time>2015-07-15T16:28:03Z</time></trkpt>
<trkpt lat="46.5910991281" lon="6.3390301075"><ele>1286.38</ele><time>2015-07-15T16:28:18Z</time></trkpt>
<trkpt lat="46.5909556299" lon="6.3387464639"><ele>1287.34</ele><time>2015-07-15T16:28:34Z</time></trkpt>
<trkpt lat="46.5908667818" lon="6.3384537678"><ele>1287.82</ele><time>2015-07-15T16:28:49Z</time></trkpt>
<trkpt lat="46.5908299852" lon="6.3381339144"><ele>1288.78</ele><time>2015-07-15T16:29:03Z</time></trkpt>
<trkpt lat="46.5908667818" lon="6.3377136458"><ele>1292.63</ele><time>2015-07-15T16:29:22Z</time></trkpt>
<trkpt lat="46.5909448173" lon="6.3373190258"><ele>1294.07</ele><time>2015-07-15T16:29:40Z</time></trkpt>
<trkpt lat="46.5909605753" lon="6.3369050436"><ele>1295.99</ele><time>2015-07-15T16:29:59Z</time></trkpt>
<trkpt lat="46.5909347590" lon="6.3365701865"><ele>1298.88</ele><time>2015-07-15T16:30:16Z</time></trkpt>
<trkpt lat="46.5909242816" lon="6.3363205735"><ele>1300.32</ele><time>2015-07-15T16:30:29Z</time></trkpt>
<trkpt lat="46.5909286402" lon="6.3363113534"><ele>1301.28</ele><time>2015-07-15T16:30:39Z</time></trkpt>
<trkpt lat="46.5909179114" lon="6.3363088388"><ele>1303.2</ele><time>2015-07-15T16:30:57Z</time></trkpt>
<trkpt lat="46.5909354296" lon="6.3363007084"><ele>1303.69</ele><time>2015-07-15T16:31:14Z</time></trkpt>
<trkpt lat="46.5909599047" lon="6.3362864591"><ele>1304.65</ele><time>2015-07-15T16:31:22Z</time></trkpt>
<trkpt lat="46.5909660235" lon="6.3362880517"><ele>1305.61</ele><time>2015-07-15T16:31:40Z</time></trkpt>
<trkpt lat="46.5909661073" lon="6.3362906501"><ele>1306.09</ele><time>2015-07-15T16:31:49Z</time></trkpt>
<trkpt lat="46.5909559652" lon="6.3362530991"><ele>1306.57</ele><time>2015-07-15T16:31:53Z</time></trkpt>
<trkpt lat="46.5909297299" lon="6.3362329826"><ele>1306.57</ele><time>2015-07-15T16:31:56Z</time></trkpt>
<trkpt lat="46.5909190848" lon="6.3362064119"><ele>1306.57</ele><time>2015-07-15T16:31:58Z</time></trkpt>
<trkpt lat="46.5908564720" lon="6.3360084314"><ele>1307.53</ele><time>2015-07-15T16:32:12Z</time></trkpt>
<trkpt lat="46.5907760058" lon="6.3357475027"><ele>1308.97</ele><time>2015-07-15T16:32:25Z</time></trkpt>
<trkpt lat="46.5907143150" lon="6.3355683815"><ele>1310.9</ele><time>2015-07-15T16:32:37Z</time></trkpt>
<trkpt lat="46.5907088667" lon="6.3355143182"><ele>1311.86</ele><time>2015-07-15T16:32:41Z</time></trkpt>
<trkpt lat="46.5907152370" lon="6.3352703210"><ele>1315.22</ele><time>2015-07-15T16:32:52Z</time></trkpt>
<trkpt lat="46.5907703899" lon="6.3349606935"><ele>1315.7</ele><time>2015-07-15T16:33:05Z</time></trkpt>
<trkpt lat="46.5906817093" lon="6.3347524032"><ele>1318.59</ele><time>2015-07-15T16:33:15Z</time></trkpt>
<trkpt lat="46.5905910172" lon="6.3345895428"><ele>1322.43</ele><time>2015-07-15T16:33:26Z</time></trkpt>
<trkpt lat="46.5905851498" lon="6.3344821706"><ele>1325.8</ele><time>2015-07-15T16:33:34Z</time></trkpt>
<trkpt lat="46.5905631054" lon="6.3343870360"><ele>1327.24</ele><time>2015-07-15T16:33:38Z</time></trkpt>
<trkpt lat="46.5905654524" lon="6.3342961762"><ele>1329.64</ele><time>2015-07-15T16:33:43Z</time></trkpt>
<trkpt lat="46.5906007402" lon="6.3340504188"><ele>1332.04</ele><time>2015-07-15T16:33:55Z</time></trkpt>
<trkpt lat="46.5906028356" lon="6.3338624965"><ele>1334.93</ele><time>2015-07-15T16:34:05Z</time></trkpt>
<trkpt lat="46.5906125586" lon="6.3337397017"><ele>1334.93</ele><time>2015-07-15T16:34:11Z</time></trkpt>
<trkpt lat="46.5907210205" lon="6.3334449101"><ele>1337.33</ele><time>2015-07-15T16:34:25Z</time></trkpt>
<trkpt lat="46.5908226091" lon="6.3332953770"><ele>1344.06</ele><time>2015-07-15T16:34:36Z</time></trkpt>
<trkpt lat="46.5908758342" lon="6.3330610190"><ele>1349.35</ele><time>2015-07-15T16:34:48Z</time></trkpt>
<trkpt lat="46.5908325836" lon="6.3328653853"><ele>1348.87</ele><time>2015-07-15T16:34:58Z</time></trkpt>
<trkpt lat="46.5907422267" lon="6.3326097373"><ele>1354.15</ele><time>2015-07-15T16:35:11Z</time></trkpt>
<trkpt lat="46.5906750038" lon="6.3324244972"><ele>1358.96</ele><time>2015-07-15T16:35:22Z</time></trkpt>
<trkpt lat="46.5905538853" lon="6.3321486488"><ele>1361.84</ele><time>2015-07-15T16:35:36Z</time></trkpt>
<trkpt lat="46.5904926974" lon="6.3319420349"><ele>1363.29</ele><time>2015-07-15T16:35:47Z</time></trkpt>
<trkpt lat="46.5904863272" lon="6.3318103552"><ele>1365.21</ele><time>2015-07-15T16:35:54Z</time></trkpt>
<trkpt lat="46.5904997382" lon="6.3317805156"><ele>1365.21</ele><time>2015-07-15T16:35:56Z</time></trkpt>
<trkpt lat="46.5905083716" lon="6.3317420427"><ele>1365.21</ele><time>2015-07-15T16:35:58Z</time></trkpt>
<trkpt lat="46.5905879159" lon="6.3315508515"><ele>1362.81</ele><time>2015-07-15T16:36:09Z</time></trkpt>
<trkpt lat="46.5906841401" lon="6.3313712273"><ele>1362.81</ele><time>2015-07-15T16:36:19Z</time></trkpt>
<trkpt lat="46.5907011554" lon="6.3311612606"><ele>1364.25</ele><time>2015-07-15T16:36:29Z</time></trkpt>
<trkpt lat="46.5906844754" lon="6.3310924452"><ele>1364.73</ele><time>2015-07-15T16:36:33Z</time></trkpt>
<trkpt lat="46.5906838048" lon="6.3310372084"><ele>1364.73</ele><time>2015-07-15T16:36:36Z</time></trkpt>
<trkpt lat="46.5907179192" lon="6.3307530619"><ele>1365.21</ele><time>2015-07-15T16:36:49Z</time></trkpt>
<trkpt lat="46.5907281451" lon="6.3305560872"><ele>1366.65</ele><time>2015-07-15T16:37:00Z</time></trkpt>
<trkpt lat="46.5907230321" lon="6.3305296842"><ele>1370.02</ele><time>2015-07-15T16:37:12Z</time></trkpt>
<trkpt lat="46.5907139797" lon="6.3305062149"><ele>1370.98</ele><time>2015-07-15T16:37:29Z</time></trkpt>
<trkpt lat="46.5907153208" lon="6.3305071369"><ele>1371.94</ele><time>2015-07-15T16:37:46Z</time></trkpt>
<trkpt lat="46.5906995628" lon="6.3304227311"><ele>1372.42</ele><time>2015-07-15T16:37:55Z</time></trkpt>
<trkpt lat="46.5906620957" lon="6.3301754650"><ele>1375.78</ele><time>2015-07-15T16:38:07Z</time></trkpt>
<trkpt lat="46.5907326713" lon="6.3299684320"><ele>1377.23</ele><time>2015-07-15T16:38:18Z</time></trkpt>
<trkpt lat="46.5907472558" lon="6.3299246784"><ele>1377.23</ele><time>2015-07-15T16:38:20Z</time></trkpt>
<trkpt lat="46.5908605792" lon="6.3296298031"><ele>1377.23</ele><time>2015-07-15T16:38:34Z</time></trkpt>
<trkpt lat="46.5909851342" lon="6.3294537831"><ele>1379.15</ele><time>2015-07-15T16:38:45Z</time></trkpt>
<trkpt lat="46.5911220107" lon="6.3292510249"><ele>1383.47</ele><time>2015-07-15T16:38:59Z</time></trkpt>
<trkpt lat="46.5912522655" lon="6.3290645275"><ele>1384.44</ele><time>2015-07-15T16:39:11Z</time></trkpt>
<trkpt lat="46.5913440473" lon="6.3288628589"><ele>1381.55</ele><time>2015-07-15T16:39:22Z</time></trkpt>
<trkpt lat="46.5914639086" lon="6.3286422472"><ele>1380.59</ele><time>2015-07-15T16:39:33Z</time></trkpt>
<trkpt lat="46.5915129427" lon="6.3285084721"><ele>1382.99</ele><time>2015-07-15T16:39:40Z</time></trkpt>
<trkpt lat="46.5916300379" lon="6.3285423350"><ele>1387.8</ele><time>2015-07-15T16:39:48Z</time></trkpt>
<trkpt lat="46.5916711930" lon="6.3286012597"><ele>1389.72</ele><time>2015-07-15T16:39:52Z</time></trkpt>
<trkpt lat="46.5916587878" lon="6.3287865836"><ele>1389.72</ele><time>2015-07-15T16:40:02Z</time></trkpt>
<trkpt lat="46.5915132780" lon="6.3290802855"><ele>1391.17</ele><time>2015-07-15T16:40:15Z</time></trkpt>
<trkpt lat="46.5914178919" lon="6.3293453213"><ele>1395.97</ele><time>2015-07-15T16:40:28Z</time></trkpt>
<trkpt lat="46.5913664270" lon="6.3296171464"><ele>1397.41</ele><time>2015-07-15T16:40:39Z</time></trkpt>
<trkpt lat="46.5914030559" lon="6.3298987783"><ele>1396.45</ele><time>2015-07-15T16:40:49Z</time></trkpt>
<trkpt lat="46.5915256832" lon="6.3300711941"><ele>1393.09</ele><time>2015-07-15T16:40:57Z</time></trkpt>
<trkpt lat="46.5916980151" lon="6.3302228227"><ele>1392.61</ele><time>2015-07-15T16:41:10Z</time></trkpt>
<trkpt lat="46.5918239113" lon="6.3303404208"><ele>1393.57</ele><time>2015-07-15T16:41:19Z</time></trkpt>
<trkpt lat="46.5919894539" lon="6.3304470386"><ele>1395.01</ele><time>2015-07-15T16:41:30Z</time></trkpt>
<trkpt lat="46.5921221394" lon="6.3305572607"><ele>1395.97</ele><time>2015-07-15T16:41:41Z</time></trkpt>
<trkpt lat="46.5921813995" lon="6.3305853400"><ele>1396.45</ele><time>2015-07-15T16:41:46Z</time></trkpt>
<trkpt lat="46.5923014283" lon="6.3305251580"><ele>1397.89</ele><time>2015-07-15T16:41:58Z</time></trkpt>
<trkpt lat="46.5923211258" lon="6.3305498846"><ele>1397.89</ele><time>2015-07-15T16:42:09Z</time></trkpt>
<trkpt lat="46.5923797153" lon="6.3304679096"><ele>1397.89</ele><time>2015-07-15T16:42:19Z</time></trkpt>
<trkpt lat="46.5925033484" lon="6.3303257525"><ele>1400.3</ele><time>2015-07-15T16:42:28Z</time></trkpt>
<trkpt lat="46.5925661288" lon="6.3303342182"><ele>1401.74</ele><time>2015-07-15T16:42:32Z</time></trkpt>
<trkpt lat="46.5927123930" lon="6.3305067178"><ele>1403.18</ele><time>2015-07-15T16:42:45Z</time></trkpt>
<trkpt lat="46.5927341860" lon="6.3305510581"><ele>1403.18</ele><time>2015-07-15T16:42:48Z</time></trkpt>
<trkpt lat="46.5928842220" lon="6.3306673989"><ele>1407.03</ele><time>2015-07-15T16:43:00Z</time></trkpt>
<trkpt lat="46.5930444002" lon="6.3309274055"><ele>1408.47</ele><time>2015-07-15T16:43:13Z</time></trkpt>
<trkpt lat="46.5931436419" lon="6.3312219456"><ele>1406.55</ele><time>2015-07-15T16:43:27Z</time></trkpt>
<trkpt lat="46.5932895709" lon="6.3313217741"><ele>1411.35</ele><time>2015-07-15T16:43:40Z</time></trkpt>
<trkpt lat="46.5934825223" lon="6.3313131407"><ele>1415.2</ele><time>2015-07-15T16:43:53Z</time></trkpt>
<trkpt lat="46.5936674271" lon="6.3314466644"><ele>1416.16</ele><time>2015-07-15T16:44:05Z</time></trkpt>
<trkpt lat="46.5938370768" lon="6.3314782642"><ele>1417.12</ele><time>2015-07-15T16:44:16Z</time></trkpt>
<trkpt lat="46.5939291101" lon="6.3314813655"><ele>1418.56</ele><time>2015-07-15T16:44:22Z</time></trkpt>
<trkpt lat="46.5941006877" lon="6.3315427210"><ele>1420.97</ele><time>2015-07-15T16:44:34Z</time></trkpt>
<trkpt lat="46.5942520648" lon="6.3316714671"><ele>1426.73</ele><time>2015-07-15T16:44:46Z</time></trkpt>
<trkpt lat="46.5944304317" lon="6.3317676075"><ele>1429.62</ele><time>2015-07-15T16:44:56Z</time></trkpt>
<trkpt lat="46.5945763607" lon="6.3319923263"><ele>1429.62</ele><time>2015-07-15T16:45:09Z</time></trkpt>
<trkpt lat="46.5946192760" lon="6.3321266882"><ele>1429.14</ele><time>2015-07-15T16:45:16Z</time></trkpt>
<trkpt lat="46.5947552305" lon="6.3322899677"><ele>1430.1</ele><time>2015-07-15T16:45:28Z</time></trkpt>
<trkpt lat="46.5947711561" lon="6.3322970085"><ele>1430.1</ele><time>2015-07-15T16:45:29Z</time></trkpt>
<trkpt lat="46.5949427336" lon="6.3322632294"><ele>1431.54</ele><time>2015-07-15T16:45:41Z</time></trkpt>
<trkpt lat="46.5950161591" lon="6.3322533388"><ele>1433.46</ele><time>2015-07-15T16:45:47Z</time></trkpt>
<trkpt lat="46.5951394569" lon="6.3323101681"><ele>1435.87</ele><time>2015-07-15T16:45:55Z</time></trkpt>
<trkpt lat="46.5951752476" lon="6.3323851023"><ele>1435.87</ele><time>2015-07-15T16:46:00Z</time></trkpt>
<trkpt lat="46.5951832104" lon="6.3324810751"><ele>1437.31</ele><time>2015-07-15T16:46:05Z</time></trkpt>
<trkpt lat="46.5951067675" lon="6.3326716796"><ele>1441.15</ele><time>2015-07-15T16:46:17Z</time></trkpt>
<trkpt lat="46.5950637683" lon="6.3328932133"><ele>1446.92</ele><time>2015-07-15T16:46:30Z</time></trkpt>
<trkpt lat="46.5950354375" lon="6.3329866715"><ele>1449.81</ele><time>2015-07-15T16:46:36Z</time></trkpt>
<trkpt lat="46.5950839687" lon="6.3333795313"><ele>1447.4</ele><time>2015-07-15T16:46:50Z</time></trkpt>
<trkpt lat="46.5951779298" lon="6.3334915135"><ele>1446.44</ele><time>2015-07-15T16:47:01Z</time></trkpt>
<trkpt lat="46.5951934364" lon="6.3334951177"><ele>1446.92</ele><time>2015-07-15T16:47:03Z</time></trkpt>
<trkpt lat="46.5952606592" lon="6.3334743306"><ele>1448.84</ele><time>2015-07-15T16:47:10Z</time></trkpt>
<trkpt lat="46.5953531954" lon="6.3333962951"><ele>1449.81</ele><time>2015-07-15T16:47:20Z</time></trkpt>
<trkpt lat="46.5954224300" lon="6.3333051838"><ele>1448.36</ele><time>2015-07-15T16:47:28Z</time></trkpt>
<trkpt lat="46.5954950172" lon="6.3331813831"><ele>1447.88</ele><time>2015-07-15T16:47:38Z</time></trkpt>
<trkpt lat="46.5955549479" lon="6.3331040181"><ele>1448.84</ele><time>2015-07-15T16:47:48Z</time></trkpt>
<trkpt lat="46.5955727175" lon="6.3330927864"><ele>1448.84</ele><time>2015-07-15T16:47:59Z</time></trkpt>
<trkpt lat="46.5955961030" lon="6.3330898527"><ele>1448.36</ele><time>2015-07-15T16:48:23Z</time></trkpt>
<trkpt lat="46.5956189856" lon="6.3330743462"><ele>1448.84</ele><time>2015-07-15T16:48:40Z</time></trkpt>
<trkpt lat="46.5956395213" lon="6.3330445904"><ele>1449.32</ele><time>2015-07-15T16:48:43Z</time></trkpt>
<trkpt lat="46.5957642440" lon="6.3329624478"><ele>1454.13</ele><time>2015-07-15T16:48:56Z</time></trkpt>
<trkpt lat="46.5958826803" lon="6.3329034392"><ele>1456.53</ele><time>2015-07-15T16:49:08Z</time></trkpt>
<trkpt lat="46.5959348995" lon="6.3328385632"><ele>1457.5</ele><time>2015-07-15T16:49:15Z</time></trkpt>
<trkpt lat="46.5960633103" lon="6.3327283412"><ele>1458.94</ele><time>2015-07-15T16:49:26Z</time></trkpt>
<trkpt lat="46.5961444471" lon="6.3326773793"><ele>1460.86</ele><time>2015-07-15T16:49:33Z</time></trkpt>
<trkpt lat="46.5962890349" lon="6.3325523213"><ele>1463.26</ele><time>2015-07-15T16:49:45Z</time></trkpt>
<trkpt lat="46.5964282583" lon="6.3323411811"><ele>1465.67</ele><time>2015-07-15T16:49:58Z</time></trkpt>
<trkpt lat="46.5964921284" lon="6.3321091700"><ele>1466.15</ele><time>2015-07-15T16:50:11Z</time></trkpt>
<trkpt lat="46.5964969061" lon="6.3320763130"><ele>1466.15</ele><time>2015-07-15T16:50:13Z</time></trkpt>
<trkpt lat="46.5964927152" lon="6.3319447171"><ele>1467.59</ele><time>2015-07-15T16:50:20Z</time></trkpt>
<trkpt lat="46.5964262467" lon="6.3317414559"><ele>1470.95</ele><time>2015-07-15T16:50:31Z</time></trkpt>
<trkpt lat="46.5963584371" lon="6.3314617518"><ele>1472.4</ele><time>2015-07-15T16:50:45Z</time></trkpt>
<trkpt lat="46.5963560063" lon="6.3311705645"><ele>1474.32</ele><time>2015-07-15T16:50:58Z</time></trkpt>
<trkpt lat="46.5963734407" lon="6.3309828099"><ele>1476.24</ele><time>2015-07-15T16:51:08Z</time></trkpt>
<trkpt lat="46.5964140929" lon="6.3307876792"><ele>1475.28</ele><time>2015-07-15T16:51:18Z</time></trkpt>
<trkpt lat="46.5964259114" lon="6.3307521399"><ele>1474.8</ele><time>2015-07-15T16:51:20Z</time></trkpt>
<trkpt lat="46.5964193735" lon="6.3305777963"><ele>1475.28</ele><time>2015-07-15T16:51:27Z</time></trkpt>
<trkpt lat="46.5963647235" lon="6.3303313684"><ele>1478.16</ele><time>2015-07-15T16:51:40Z</time></trkpt>
<trkpt lat="46.5962721873" lon="6.3300051447"><ele>1481.53</ele><time>2015-07-15T16:51:52Z</time></trkpt>
<trkpt lat="46.5961933136" lon="6.3296809327"><ele>1482.49</ele><time>2015-07-15T16:52:02Z</time></trkpt>
<trkpt lat="46.5962884482" lon="6.3293764181"><ele>1481.53</ele><time>2015-07-15T16:52:12Z</time></trkpt>
<trkpt lat="46.5963265020" lon="6.3290395495"><ele>1482.01</ele><time>2015-07-15T16:52:23Z</time></trkpt>
<trkpt lat="46.5963258315" lon="6.3290170021"><ele>1482.01</ele><time>2015-07-15T16:52:24Z</time></trkpt>
<trkpt lat="46.5962948184" lon="6.3288920280"><ele>1482.97</ele><time>2015-07-15T16:52:30Z</time></trkpt>
<trkpt lat="46.5962060541" lon="6.3285564166"><ele>1482.97</ele><time>2015-07-15T16:52:44Z</time></trkpt>
<trkpt lat="46.5961492248" lon="6.3282265048"><ele>1484.41</ele><time>2015-07-15T16:52:57Z</time></trkpt>
<trkpt lat="46.5960582811" lon="6.3279893808"><ele>1485.85</ele><time>2015-07-15T16:53:08Z</time></trkpt>
<trkpt lat="46.5958592948" lon="6.3278503250"><ele>1488.74</ele><time>2015-07-15T16:53:21Z</time></trkpt>
<trkpt lat="46.5955892298" lon="6.3278514147"><ele>1491.62</ele><time>2015-07-15T16:53:37Z</time></trkpt>
<trkpt lat="46.5954641718" lon="6.3276342396"><ele>1494.03</ele><time>2015-07-15T16:53:49Z</time></trkpt>
<trkpt lat="46.5953555424" lon="6.3273125421"><ele>1494.99</ele><time>2015-07-15T16:54:05Z</time></trkpt>
<trkpt lat="46.5953531116" lon="6.3271053415"><ele>1496.91</ele><time>2015-07-15T16:54:16Z</time></trkpt>
<trkpt lat="46.5953536145" lon="6.3270816207"><ele>1496.91</ele><time>2015-07-15T16:54:17Z</time></trkpt>
<trkpt lat="46.5953557938" lon="6.3268170040"><ele>1499.79</ele><time>2015-07-15T16:54:29Z</time></trkpt>
<trkpt lat="46.5954778343" lon="6.3265050296"><ele>1502.2</ele><time>2015-07-15T16:54:44Z</time></trkpt>
<trkpt lat="46.5956184827" lon="6.3262435142"><ele>1503.16</ele><time>2015-07-15T16:54:58Z</time></trkpt>
<trkpt lat="46.5956080053" lon="6.3259849325"><ele>1502.68</ele><time>2015-07-15T16:55:09Z</time></trkpt>
<trkpt lat="46.5954549517" lon="6.3257966749"><ele>1503.64</ele><time>2015-07-15T16:55:22Z</time></trkpt>
<trkpt lat="46.5952428896" lon="6.3256105967"><ele>1505.08</ele><time>2015-07-15T16:55:36Z</time></trkpt>
<trkpt lat="46.5951370262" lon="6.3253190741"><ele>1506.52</ele><time>2015-07-15T16:55:50Z</time></trkpt>
<trkpt lat="46.5951081924" lon="6.3250050042"><ele>1507</ele><time>2015-07-15T16:56:03Z</time></trkpt>
<trkpt lat="46.5952324122" lon="6.3247923553"><ele>1509.41</ele><time>2015-07-15T16:56:15Z</time></trkpt>
<trkpt lat="46.5954191610" lon="6.3247801177"><ele>1511.33</ele><time>2015-07-15T16:56:28Z</time></trkpt>
<trkpt lat="46.5954391100" lon="6.3247837219"><ele>1510.85</ele><time>2015-07-15T16:56:38Z</time></trkpt>
<trkpt lat="46.5954443067" lon="6.3247972168"><ele>1510.37</ele><time>2015-07-15T16:56:50Z</time></trkpt>
<trkpt lat="46.5954476595" lon="6.3248124719"><ele>1509.41</ele><time>2015-07-15T16:57:15Z</time></trkpt>
<trkpt lat="46.5954394452" lon="6.3248169981"><ele>1507.97</ele><time>2015-07-15T16:57:43Z</time></trkpt>
<trkpt lat="46.5954347514" lon="6.3248173334"><ele>1507</ele><time>2015-07-15T16:58:06Z</time></trkpt>
<trkpt lat="46.5954384394" lon="6.3248309121"><ele>1507</ele><time>2015-07-15T16:58:31Z</time></trkpt>
<trkpt lat="46.5954455640" lon="6.3248313311"><ele>1506.04</ele><time>2015-07-15T16:58:52Z</time></trkpt>
<trkpt lat="46.5954489168" lon="6.3248350192"><ele>1506.04</ele><time>2015-07-15T16:59:15Z</time></trkpt>
<trkpt lat="46.5954541136" lon="6.3248338457"><ele>1505.08</ele><time>2015-07-15T16:59:41Z</time></trkpt>
<trkpt lat="46.5954567958" lon="6.3248217758"><ele>1505.08</ele><time>2015-07-15T17:00:09Z</time></trkpt>
<trkpt lat="46.5954533592" lon="6.3248203509"><ele>1504.6</ele><time>2015-07-15T17:00:34Z</time></trkpt>
<trkpt lat="46.5954536106" lon="6.3248258829"><ele>1505.08</ele><time>2015-07-15T17:01:05Z</time></trkpt>
<trkpt lat="46.5954566281" lon="6.3248231169"><ele>1504.12</ele><time>2015-07-15T17:01:33Z</time></trkpt>
<trkpt lat="46.5954553708" lon="6.3248235360"><ele>1503.64</ele><time>2015-07-15T17:01:58Z</time></trkpt>
<trkpt lat="46.5954557899" lon="6.3248204347"><ele>1504.6</ele><time>2015-07-15T17:02:27Z</time></trkpt>
<trkpt lat="46.5954519343" lon="6.3248118851"><ele>1505.56</ele><time>2015-07-15T17:03:00Z</time></trkpt>
<trkpt lat="46.5954453126" lon="6.3248081971"><ele>1506.04</ele><time>2015-07-15T17:03:24Z</time></trkpt>
<trkpt lat="46.5954445582" lon="6.3248143997"><ele>1506.04</ele><time>2015-07-15T17:03:57Z</time></trkpt>
<trkpt lat="46.5954450611" lon="6.3248145673"><ele>1506.52</ele><time>2015-07-15T17:04:01Z</time></trkpt>
<trkpt lat="46.5955573786" lon="6.3249762543"><ele>1507.97</ele><time>2015-07-15T17:04:14Z</time></trkpt>
<trkpt lat="46.5957253519" lon="6.3251733966"><ele>1508.93</ele><time>2015-07-15T17:04:25Z</time></trkpt>
<trkpt lat="46.5958740469" lon="6.3253358379"><ele>1510.37</ele><time>2015-07-15T17:04:35Z</time></trkpt>
<trkpt lat="46.5962579381" lon="6.3255839422"><ele>1510.85</ele><time>2015-07-15T17:04:49Z</time></trkpt>
<trkpt lat="46.5966097265" lon="6.3257047255"><ele>1512.29</ele><time>2015-07-15T17:05:01Z</time></trkpt>
<trkpt lat="46.5969705675" lon="6.3257394265"><ele>1513.73</ele><time>2015-07-15T17:05:13Z</time></trkpt>
<trkpt lat="46.5971763432" lon="6.3257266860"><ele>1515.66</ele><time>2015-07-15T17:05:23Z</time></trkpt>
<trkpt lat="46.5973915067" lon="6.3257635664"><ele>1519.02</ele><time>2015-07-15T17:05:35Z</time></trkpt>
<trkpt lat="46.5976010542" lon="6.3259585295"><ele>1520.94</ele><time>2015-07-15T17:05:49Z</time></trkpt>
<trkpt lat="46.5976553690" lon="6.3260368165"><ele>1522.39</ele><time>2015-07-15T17:05:54Z</time></trkpt>
<trkpt lat="46.5978166368" lon="6.3262132555"><ele>1525.75</ele><time>2015-07-15T17:06:07Z</time></trkpt>
<trkpt lat="46.5979450475" lon="6.3262889441"><ele>1527.19</ele><time>2015-07-15T17:06:16Z</time></trkpt>
<trkpt lat="46.5979712829" lon="6.3262962364"><ele>1527.67</ele><time>2015-07-15T17:06:18Z</time></trkpt>
<trkpt lat="46.5981332213" lon="6.3263507187"><ele>1530.08</ele><time>2015-07-15T17:06:30Z</time></trkpt>
<trkpt lat="46.5983152762" lon="6.3264523912"><ele>1532.96</ele><time>2015-07-15T17:06:44Z</time></trkpt>
<trkpt lat="46.5984403342" lon="6.3264592644"><ele>1535.36</ele><time>2015-07-15T17:06:55Z</time></trkpt>
<trkpt lat="46.5985905379" lon="6.3262910396"><ele>1536.8</ele><time>2015-07-15T17:07:09Z</time></trkpt>
<trkpt lat="46.5987499617" lon="6.3261746988"><ele>1539.21</ele><time>2015-07-15T17:07:21Z</time></trkpt>
<trkpt lat="46.5989338607" lon="6.3262309413"><ele>1542.57</ele><time>2015-07-15T17:07:36Z</time></trkpt>
<trkpt lat="46.5990072861" lon="6.3262601942"><ele>1544.98</ele><time>2015-07-15T17:07:42Z</time></trkpt>
<trkpt lat="46.5991803724" lon="6.3264083024"><ele>1547.38</ele><time>2015-07-15T17:07:53Z</time></trkpt>
<trkpt lat="46.5994040854" lon="6.3266628608"><ele>1547.86</ele><time>2015-07-15T17:08:03Z</time></trkpt>
<trkpt lat="46.5994636808" lon="6.3267297484"><ele>1547.86</ele><time>2015-07-15T17:08:06Z</time></trkpt>
<trkpt lat="46.5995441470" lon="6.3268252183"><ele>1546.42</ele><time>2015-07-15T17:08:10Z</time></trkpt>
<trkpt lat="46.5998140443" lon="6.3271272182"><ele>1544.5</ele><time>2015-07-15T17:08:21Z</time></trkpt>
<trkpt lat="46.6000598017" lon="6.3271630928"><ele>1544.98</ele><time>2015-07-15T17:08:32Z</time></trkpt>
<trkpt lat="46.6001038067" lon="6.3271661103"><ele>1544.98</ele><time>2015-07-15T17:08:35Z</time></trkpt>
<trkpt lat="46.6003120132" lon="6.3270644378"><ele>1547.38</ele><time>2015-07-15T17:08:48Z</time></trkpt>
<trkpt lat="46.6005106643" lon="6.3269624300"><ele>1553.63</ele><time>2015-07-15T17:09:01Z</time></trkpt>
<trkpt lat="46.6005615424" lon="6.3269183412"><ele>1555.07</ele><time>2015-07-15T17:09:05Z</time></trkpt>
<trkpt lat="46.6006702557" lon="6.3267528825"><ele>1559.4</ele><time>2015-07-15T17:09:16Z</time></trkpt>
<trkpt lat="46.6008091439" lon="6.3265783712"><ele>1561.8</ele><time>2015-07-15T17:09:27Z</time></trkpt>
<trkpt lat="46.6008918732" lon="6.3265176024"><ele>1562.28</ele><time>2015-07-15T17:09:32Z</time></trkpt>
<trkpt lat="46.6009515524" lon="6.3263973221"><ele>1562.76</ele><time>2015-07-15T17:09:37Z</time></trkpt>
<trkpt lat="46.6010176018" lon="6.3260534126"><ele>1564.68</ele><time>2015-07-15T17:09:48Z</time></trkpt>
<trkpt lat="46.6009526420" lon="6.3257868681"><ele>1568.05</ele><time>2015-07-15T17:09:58Z</time></trkpt>
<trkpt lat="46.6008357983" lon="6.3254324812"><ele>1570.45</ele><time>2015-07-15T17:10:09Z</time></trkpt>
<trkpt lat="46.6007922962" lon="6.3250644319"><ele>1570.93</ele><time>2015-07-15T17:10:20Z</time></trkpt>
<trkpt lat="46.6007024422" lon="6.3248307444"><ele>1571.89</ele><time>2015-07-15T17:10:30Z</time></trkpt>
<trkpt lat="46.6004755441" lon="6.3245851547"><ele>1571.89</ele><time>2015-07-15T17:10:42Z</time></trkpt>
<trkpt lat="46.6002400964" lon="6.3244233839"><ele>1569.97</ele><time>2015-07-15T17:10:53Z</time></trkpt>
<trkpt lat="46.6000717878" lon="6.3242480345"><ele>1566.61</ele><time>2015-07-15T17:11:03Z</time></trkpt>
<trkpt lat="46.6000572871" lon="6.3239775505"><ele>1568.53</ele><time>2015-07-15T17:11:13Z</time></trkpt>
<trkpt lat="46.6001099255" lon="6.3237776421"><ele>1571.41</ele><time>2015-07-15T17:11:23Z</time></trkpt>
<trkpt lat="46.6000695247" lon="6.3235514984"><ele>1572.85</ele><time>2015-07-15T17:11:34Z</time></trkpt>
<trkpt lat="46.5999532677" lon="6.3233100157"><ele>1577.18</ele><time>2015-07-15T17:11:48Z</time></trkpt>
<trkpt lat="46.5998030640" lon="6.3231020607"><ele>1577.66</ele><time>2015-07-15T17:12:02Z</time></trkpt>
<trkpt lat="46.5996974520" lon="6.3228623383"><ele>1580.06</ele><time>2015-07-15T17:12:14Z</time></trkpt>
<trkpt lat="46.5996670257" lon="6.3224621862"><ele>1582.95</ele><time>2015-07-15T17:12:31Z</time></trkpt>
<trkpt lat="46.5996875614" lon="6.3221715018"><ele>1585.35</ele><time>2015-07-15T17:12:45Z</time></trkpt>
<trkpt lat="46.5997738112" lon="6.3219236489"><ele>1588.72</ele><time>2015-07-15T17:12:59Z</time></trkpt>
<trkpt lat="46.5998415370" lon="6.3216680009"><ele>1590.64</ele><time>2015-07-15T17:13:12Z</time></trkpt>
<trkpt lat="46.5998368431" lon="6.3214643206"><ele>1590.64</ele><time>2015-07-15T17:13:24Z</time></trkpt>
<trkpt lat="46.5997831989" lon="6.3212154619"><ele>1592.08</ele><time>2015-07-15T17:13:39Z</time></trkpt>
<trkpt lat="46.5997557901" lon="6.3211161364"><ele>1594</ele><time>2015-07-15T17:13:46Z</time></trkpt>
<trkpt lat="46.5997347515" lon="6.3211147953"><ele>1594</ele><time>2015-07-15T17:13:48Z</time></trkpt>
<trkpt lat="46.5995953605" lon="6.3209790923"><ele>1596.41</ele><time>2015-07-15T17:14:03Z</time></trkpt>
<trkpt lat="46.5994735714" lon="6.3207379449"><ele>1600.25</ele><time>2015-07-15T17:14:20Z</time></trkpt>
<trkpt lat="46.5994028281" lon="6.3204480149"><ele>1602.17</ele><time>2015-07-15T17:14:35Z</time></trkpt>
<trkpt lat="46.5993955359" lon="6.3201651257"><ele>1605.06</ele><time>2015-07-15T17:14:48Z</time></trkpt>
<trkpt lat="46.5994007327" lon="6.3198113255"><ele>1607.94</ele><time>2015-07-15T17:15:04Z</time></trkpt>
<trkpt lat="46.5993038379" lon="6.3195222337"><ele>1610.35</ele><time>2015-07-15T17:15:18Z</time></trkpt>
<trkpt lat="46.5992283169" lon="6.3192195632"><ele>1612.75</ele><time>2015-07-15T17:15:32Z</time></trkpt>
<trkpt lat="46.5992244612" lon="6.3188182376"><ele>1614.19</ele><time>2015-07-15T17:15:49Z</time></trkpt>
<trkpt lat="46.5991493594" lon="6.3185876515"><ele>1615.63</ele><time>2015-07-15T17:16:01Z</time></trkpt>
<trkpt lat="46.5990139917" lon="6.3183984719"><ele>1618.52</ele><time>2015-07-15T17:16:14Z</time></trkpt>
<trkpt lat="46.5989807993" lon="6.3183181733"><ele>1618.52</ele><time>2015-07-15T17:16:19Z</time></trkpt>
<trkpt lat="46.5989686456" lon="6.3183118030"><ele>1618.52</ele><time>2015-07-15T17:16:27Z</time></trkpt>
<trkpt lat="46.5989734232" lon="6.3183362782"><ele>1618.52</ele><time>2015-07-15T17:16:38Z</time></trkpt>
<trkpt lat="46.5989835653" lon="6.3183302432"><ele>1617.56</ele><time>2015-07-15T17:17:10Z</time></trkpt>
<trkpt lat="46.5989802964" lon="6.3183366973"><ele>1617.56</ele><time>2015-07-15T17:17:51Z</time></trkpt>
<trkpt lat="46.5989724174" lon="6.3183269743"><ele>1618.04</ele><time>2015-07-15T17:18:24Z</time></trkpt>
<trkpt lat="46.5989819728" lon="6.3183112163"><ele>1618.52</ele><time>2015-07-15T17:18:55Z</time></trkpt>
<trkpt lat="46.5989781171" lon="6.3183043431"><ele>1619.48</ele><time>2015-07-15T17:19:36Z</time></trkpt>
<trkpt lat="46.5989747643" lon="6.3183224481"><ele>1618.52</ele><time>2015-07-15T17:20:11Z</time></trkpt>
<trkpt lat="46.5989776980" lon="6.3183293212"><ele>1617.56</ele><time>2015-07-15T17:20:43Z</time></trkpt>
<trkpt lat="46.5989799611" lon="6.3183231186"><ele>1618.04</ele><time>2015-07-15T17:21:20Z</time></trkpt>
<trkpt lat="46.5989836492" lon="6.3183165807"><ele>1618.04</ele><time>2015-07-15T17:21:48Z</time></trkpt>
<trkpt lat="46.5989792068" lon="6.3183165807"><ele>1618.04</ele><time>2015-07-15T17:22:29Z</time></trkpt>
<trkpt lat="46.5989807155" lon="6.3183203526"><ele>1618.04</ele><time>2015-07-15T17:23:02Z</time></trkpt>
<trkpt lat="46.5989899356" lon="6.3183138985"><ele>1618.04</ele><time>2015-07-15T17:23:32Z</time></trkpt>
<trkpt lat="46.5989943780" lon="6.3183195144"><ele>1618.04</ele><time>2015-07-15T17:24:22Z</time></trkpt>
<trkpt lat="46.5989910252" lon="6.3183164969"><ele>1617.56</ele><time>2015-07-15T17:25:01Z</time></trkpt>
<trkpt lat="46.5989900194" lon="6.3183119707"><ele>1617.56</ele><time>2015-07-15T17:25:46Z</time></trkpt>
<trkpt lat="46.5989885107" lon="6.3183126412"><ele>1618.52</ele><time>2015-07-15T17:26:31Z</time></trkpt>
<trkpt lat="46.5989929531" lon="6.3183001522"><ele>1619.48</ele><time>2015-07-15T17:27:16Z</time></trkpt>
<trkpt lat="46.5989919472" lon="6.3183093723"><ele>1618.52</ele><time>2015-07-15T17:27:56Z</time></trkpt>
<trkpt lat="46.5989972278" lon="6.3183166645"><ele>1618.04</ele><time>2015-07-15T17:28:41Z</time></trkpt>
<trkpt lat="46.5989935398" lon="6.3183207717"><ele>1618.04</ele><time>2015-07-15T17:29:19Z</time></trkpt>
<trkpt lat="46.5989900194" lon="6.3183235377"><ele>1617.56</ele><time>2015-07-15T17:29:52Z</time></trkpt>
<trkpt lat="46.5989875887" lon="6.3183131441"><ele>1618.04</ele><time>2015-07-15T17:30:22Z</time></trkpt>
<trkpt lat="46.5989906061" lon="6.3183095399"><ele>1619</ele><time>2015-07-15T17:31:09Z</time></trkpt>
<trkpt lat="46.5989875887" lon="6.3183057681"><ele>1619.48</ele><time>2015-07-15T17:31:53Z</time></trkpt>
<trkpt lat="46.5989797097" lon="6.3183082826"><ele>1619.48</ele><time>2015-07-15T17:32:43Z</time></trkpt>
<trkpt lat="46.5989849903" lon="6.3183077797"><ele>1618.52</ele><time>2015-07-15T17:33:16Z</time></trkpt>
<trkpt lat="46.5989893489" lon="6.3183085341"><ele>1618.04</ele><time>2015-07-15T17:33:54Z</time></trkpt>
<trkpt lat="46.5989842359" lon="6.3183092047"><ele>1618.52</ele><time>2015-07-15T17:34:35Z</time></trkpt>
<trkpt lat="46.5989787877" lon="6.3183005713"><ele>1619.96</ele><time>2015-07-15T17:35:17Z</time></trkpt>
<trkpt lat="46.5989810508" lon="6.3183014095"><ele>1620.92</ele><time>2015-07-15T17:35:59Z</time></trkpt>
<trkpt lat="46.5989824757" lon="6.3183106296"><ele>1620.92</ele><time>2015-07-15T17:36:46Z</time></trkpt>
<trkpt lat="46.5989840683" lon="6.3183119707"><ele>1619.96</ele><time>2015-07-15T17:37:18Z</time></trkpt>
<trkpt lat="46.5989839844" lon="6.3183194306"><ele>1619.48</ele><time>2015-07-15T17:37:46Z</time></trkpt>
<trkpt lat="46.5989940427" lon="6.3183162455"><ele>1619.48</ele><time>2015-07-15T17:38:29Z</time></trkpt>
<trkpt lat="46.5989887621" lon="6.3183061872"><ele>1619.96</ele><time>2015-07-15T17:39:09Z</time></trkpt>
<trkpt lat="46.5989847388" lon="6.3183117192"><ele>1619.48</ele><time>2015-07-15T17:39:27Z</time></trkpt>
<trkpt lat="46.5989872534" lon="6.3183123898"><ele>1619.48</ele><time>2015-07-15T17:39:31Z</time></trkpt>
<trkpt lat="46.5990900155" lon="6.3184517808"><ele>1618.04</ele><time>2015-07-15T17:39:40Z</time></trkpt>
<trkpt lat="46.5991462581" lon="6.3185524475"><ele>1616.59</ele><time>2015-07-15T17:39:42Z</time></trkpt>
<trkpt lat="46.5993189253" lon="6.3185501006"><ele>1614.19</ele><time>2015-07-15T17:39:47Z</time></trkpt>
<trkpt lat="46.5993778501" lon="6.3184860628"><ele>1614.67</ele><time>2015-07-15T17:39:50Z</time></trkpt>
<trkpt lat="46.5994468331" lon="6.3184261322"><ele>1615.63</ele><time>2015-07-15T17:39:54Z</time></trkpt>
<trkpt lat="46.5995842125" lon="6.3185210153"><ele>1618.04</ele><time>2015-07-15T17:40:04Z</time></trkpt>
<trkpt lat="46.5997156408" lon="6.3187110331"><ele>1618.04</ele><time>2015-07-15T17:40:14Z</time></trkpt>
<trkpt lat="46.5999541897" lon="6.3190440461"><ele>1618.04</ele><time>2015-07-15T17:40:26Z</time></trkpt>
<trkpt lat="46.6002307925" lon="6.3191907294"><ele>1616.59</ele><time>2015-07-15T17:40:35Z</time></trkpt>
<trkpt lat="46.6005933098" lon="6.3191603869"><ele>1617.07</ele><time>2015-07-15T17:40:47Z</time></trkpt>
<trkpt lat="46.6009044461" lon="6.3190870453"><ele>1616.11</ele><time>2015-07-15T17:40:56Z</time></trkpt>
<trkpt lat="46.6010398138" lon="6.3192569464"><ele>1616.11</ele><time>2015-07-15T17:41:00Z</time></trkpt>
<trkpt lat="46.6012080386" lon="6.3193819206"><ele>1614.67</ele><time>2015-07-15T17:41:05Z</time></trkpt>
<trkpt lat="46.6014734097" lon="6.3193746284"><ele>1614.19</ele><time>2015-07-15T17:41:12Z</time></trkpt>
<trkpt lat="46.6016542073" lon="6.3194173761"><ele>1613.71</ele><time>2015-07-15T17:41:16Z</time></trkpt>
<trkpt lat="46.6018623300" lon="6.3195365667"><ele>1612.75</ele><time>2015-07-15T17:41:24Z</time></trkpt>
<trkpt lat="46.6020727996" lon="6.3195565995"><ele>1612.27</ele><time>2015-07-15T17:41:34Z</time></trkpt>
<trkpt lat="46.6024424415" lon="6.3194567710"><ele>1608.42</ele><time>2015-07-15T17:41:45Z</time></trkpt>
<trkpt lat="46.6025977582" lon="6.3194123469"><ele>1606.98</ele><time>2015-07-15T17:41:49Z</time></trkpt>
<trkpt lat="46.6027715150" lon="6.3194472156"><ele>1605.06</ele><time>2015-07-15T17:41:53Z</time></trkpt>
<trkpt lat="46.6028555855" lon="6.3194981776"><ele>1603.62</ele><time>2015-07-15T17:41:55Z</time></trkpt>
<trkpt lat="46.6029430088" lon="6.3195477147"><ele>1601.69</ele><time>2015-07-15T17:41:57Z</time></trkpt>
<trkpt lat="46.6033745091" lon="6.3197866827"><ele>1594.96</ele><time>2015-07-15T17:42:06Z</time></trkpt>
<trkpt lat="46.6035382915" lon="6.3199803885"><ele>1592.56</ele><time>2015-07-15T17:42:11Z</time></trkpt>
<trkpt lat="46.6035652813" lon="6.3198565040"><ele>1592.08</ele><time>2015-07-15T17:42:17Z</time></trkpt>
<trkpt lat="46.6035326757" lon="6.3198202942"><ele>1591.6</ele><time>2015-07-15T17:42:18Z</time></trkpt>
<trkpt lat="46.6031834856" lon="6.3193419389"><ele>1585.83</ele><time>2015-07-15T17:42:28Z</time></trkpt>
<trkpt lat="46.6028228123" lon="6.3186504319"><ele>1577.18</ele><time>2015-07-15T17:42:39Z</time></trkpt>
<trkpt lat="46.6026819963" lon="6.3183423970"><ele>1574.3</ele><time>2015-07-15T17:42:44Z</time></trkpt>
<trkpt lat="46.6025692597" lon="6.3180270698"><ele>1570.93</ele><time>2015-07-15T17:42:49Z</time></trkpt>
<trkpt lat="46.6025002766" lon="6.3177673984"><ele>1568.05</ele><time>2015-07-15T17:42:53Z</time></trkpt>
<trkpt lat="46.6023045592" lon="6.3168329000"><ele>1558.43</ele><time>2015-07-15T17:43:06Z</time></trkpt>
<trkpt lat="46.6021520086" lon="6.3161144033"><ele>1551.71</ele><time>2015-07-15T17:43:16Z</time></trkpt>
<trkpt lat="46.6022002883" lon="6.3156022690"><ele>1549.3</ele><time>2015-07-15T17:43:24Z</time></trkpt>
<trkpt lat="46.6023445409" lon="6.3151918910"><ele>1548.34</ele><time>2015-07-15T17:43:35Z</time></trkpt>
<trkpt lat="46.6023572814" lon="6.3151105028"><ele>1547.86</ele><time>2015-07-15T17:43:37Z</time></trkpt>
<trkpt lat="46.6023328900" lon="6.3149758056"><ele>1547.38</ele><time>2015-07-15T17:43:41Z</time></trkpt>
<trkpt lat="46.6023091692" lon="6.3148911484"><ele>1546.9</ele><time>2015-07-15T17:43:44Z</time></trkpt>
<trkpt lat="46.6023131087" lon="6.3148357440"><ele>1547.86</ele><time>2015-07-15T17:43:52Z</time></trkpt>
<trkpt lat="46.6023193114" lon="6.3148378395"><ele>1549.78</ele><time>2015-07-15T17:44:12Z</time></trkpt>
<trkpt lat="46.6023140308" lon="6.3148459699"><ele>1549.78</ele><time>2015-07-15T17:44:22Z</time></trkpt>
<trkpt lat="46.6022949200" lon="6.3148312178"><ele>1549.78</ele><time>2015-07-15T17:44:25Z</time></trkpt>
<trkpt lat="46.6021824349" lon="6.3146243524"><ele>1548.82</ele><time>2015-07-15T17:44:36Z</time></trkpt>
<trkpt lat="46.6020883899" lon="6.3144742325"><ele>1551.71</ele><time>2015-07-15T17:44:46Z</time></trkpt>
<trkpt lat="46.6020546108" lon="6.3144586422"><ele>1551.71</ele><time>2015-07-15T17:44:57Z</time></trkpt>
<trkpt lat="46.6020394396" lon="6.3144684490"><ele>1551.22</ele><time>2015-07-15T17:45:04Z</time></trkpt>
<trkpt lat="46.6020329855" lon="6.3144680299"><ele>1550.74</ele><time>2015-07-15T17:45:20Z</time></trkpt>
<trkpt lat="46.6020261124" lon="6.3144592289"><ele>1549.78</ele><time>2015-07-15T17:45:34Z</time></trkpt>
<trkpt lat="46.6019610688" lon="6.3143589813"><ele>1548.82</ele><time>2015-07-15T17:45:42Z</time></trkpt>
<trkpt lat="46.6018737294" lon="6.3142138906"><ele>1547.86</ele><time>2015-07-15T17:45:51Z</time></trkpt>
<trkpt lat="46.6018322390" lon="6.3141300716"><ele>1546.9</ele><time>2015-07-15T17:45:55Z</time></trkpt>
<trkpt lat="46.6016401257" lon="6.3138323463"><ele>1544.01</ele><time>2015-07-15T17:46:05Z</time></trkpt>
<trkpt lat="46.6014834680" lon="6.3136368804"><ele>1543.05</ele><time>2015-07-15T17:46:14Z</time></trkpt>
<trkpt lat="46.6013810411" lon="6.3134473655"><ele>1542.57</ele><time>2015-07-15T17:46:22Z</time></trkpt>
<trkpt lat="46.6011846531" lon="6.3131008577"><ele>1540.65</ele><time>2015-07-15T17:46:33Z</time></trkpt>
<trkpt lat="46.6010010894" lon="6.3127561938"><ele>1541.13</ele><time>2015-07-15T17:46:43Z</time></trkpt>
<trkpt lat="46.6008401569" lon="6.3124234322"><ele>1541.13</ele><time>2015-07-15T17:46:52Z</time></trkpt>
<trkpt lat="46.6006750334" lon="6.3121143915"><ele>1542.09</ele><time>2015-07-15T17:47:02Z</time></trkpt>
<trkpt lat="46.6005726904" lon="6.3118697237"><ele>1542.57</ele><time>2015-07-15T17:47:11Z</time></trkpt>
<trkpt lat="46.6006049607" lon="6.3116688933"><ele>1541.61</ele><time>2015-07-15T17:47:15Z</time></trkpt>
<trkpt lat="46.6005416773" lon="6.3114978187"><ele>1540.65</ele><time>2015-07-15T17:47:21Z</time></trkpt>
<trkpt lat="46.6004249174" lon="6.3113748562"><ele>1542.09</ele><time>2015-07-15T17:47:30Z</time></trkpt>
<trkpt lat="46.6004228219" lon="6.3113290071"><ele>1542.09</ele><time>2015-07-15T17:47:37Z</time></trkpt>
<trkpt lat="46.6004294436" lon="6.3113284204"><ele>1541.61</ele><time>2015-07-15T17:47:53Z</time></trkpt>
<trkpt lat="46.6004295275" lon="6.3113277499"><ele>1541.61</ele><time>2015-07-15T17:47:54Z</time></trkpt>
<trkpt lat="46.6004798189" lon="6.3112990838"><ele>1541.61</ele><time>2015-07-15T17:47:59Z</time></trkpt>
<trkpt lat="46.6005430184" lon="6.3114041090"><ele>1541.61</ele><time>2015-07-15T17:48:07Z</time></trkpt>
<trkpt lat="46.6007221397" lon="6.3115191925"><ele>1538.73</ele><time>2015-07-15T17:48:17Z</time></trkpt>
<trkpt lat="46.6007662285" lon="6.3115528040"><ele>1537.77</ele><time>2015-07-15T17:48:19Z</time></trkpt>
<trkpt lat="46.6010014247" lon="6.3115789555"><ele>1534.4</ele><time>2015-07-15T17:48:28Z</time></trkpt>
<trkpt lat="46.6010256484" lon="6.3115855772"><ele>1534.4</ele><time>2015-07-15T17:48:29Z</time></trkpt>
<trkpt lat="46.6010659654" lon="6.3116293307"><ele>1533.44</ele><time>2015-07-15T17:48:31Z</time></trkpt>
<trkpt lat="46.6011725832" lon="6.3116377126"><ele>1532</ele><time>2015-07-15T17:48:35Z</time></trkpt>
<trkpt lat="46.6013068613" lon="6.3115069550"><ele>1530.56</ele><time>2015-07-15T17:48:44Z</time></trkpt>
<trkpt lat="46.6012982279" lon="6.3115064520"><ele>1531.04</ele><time>2015-07-15T17:48:55Z</time></trkpt>
<trkpt lat="46.6012778599" lon="6.3112850860"><ele>1529.11</ele><time>2015-07-15T17:49:04Z</time></trkpt>
<trkpt lat="46.6012038477" lon="6.3111594412"><ele>1527.19</ele><time>2015-07-15T17:49:13Z</time></trkpt>
<trkpt lat="46.6012107208" lon="6.3110630494"><ele>1525.75</ele><time>2015-07-15T17:49:23Z</time></trkpt>
<trkpt lat="46.6012499481" lon="6.3109354768"><ele>1524.31</ele><time>2015-07-15T17:49:32Z</time></trkpt>
<trkpt lat="46.6012372915" lon="6.3107784837"><ele>1523.35</ele><time>2015-07-15T17:49:42Z</time></trkpt>
<trkpt lat="46.6011478566" lon="6.3105093408"><ele>1519.02</ele><time>2015-07-15T17:49:51Z</time></trkpt>
<trkpt lat="46.6011102218" lon="6.3104548585"><ele>1518.06</ele><time>2015-07-15T17:49:56Z</time></trkpt>
<trkpt lat="46.6010435019" lon="6.3102282118"><ele>1517.1</ele><time>2015-07-15T17:50:04Z</time></trkpt>
<trkpt lat="46.6010290850" lon="6.3101587258"><ele>1516.14</ele><time>2015-07-15T17:50:08Z</time></trkpt>
<trkpt lat="46.6009642929" lon="6.3099925965"><ele>1513.73</ele><time>2015-07-15T17:50:17Z</time></trkpt>
<trkpt lat="46.6009376384" lon="6.3099522796"><ele>1512.77</ele><time>2015-07-15T17:50:24Z</time></trkpt>
<trkpt lat="46.6009207070" lon="6.3099220209"><ele>1512.77</ele><time>2015-07-15T17:50:26Z</time></trkpt>
<trkpt lat="46.6009660531" lon="6.3097751699"><ele>1509.41</ele><time>2015-07-15T17:50:36Z</time></trkpt>
<trkpt lat="46.6010149196" lon="6.3096698094"><ele>1507</ele><time>2015-07-15T17:50:45Z</time></trkpt>
<trkpt lat="46.6010432504" lon="6.3096244633"><ele>1507</ele><time>2015-07-15T17:50:48Z</time></trkpt>
<trkpt lat="46.6010781191" lon="6.3095924444"><ele>1506.52</ele><time>2015-07-15T17:50:50Z</time></trkpt>
<trkpt lat="46.6012967192" lon="6.3094930351"><ele>1505.56</ele><time>2015-07-15T17:51:01Z</time></trkpt>
<trkpt lat="46.6013124771" lon="6.3094830606"><ele>1505.56</ele><time>2015-07-15T17:51:10Z</time></trkpt>
<trkpt lat="46.6013172548" lon="6.3094747625"><ele>1505.56</ele><time>2015-07-15T17:51:18Z</time></trkpt>
<trkpt lat="46.6013245471" lon="6.3094861619"><ele>1505.56</ele><time>2015-07-15T17:51:31Z</time></trkpt>
<trkpt lat="46.6013966314" lon="6.3094463479"><ele>1505.56</ele><time>2015-07-15T17:51:43Z</time></trkpt>
<trkpt lat="46.6015301552" lon="6.3093554042"><ele>1505.56</ele><time>2015-07-15T17:51:50Z</time></trkpt>
<trkpt lat="46.6016847175" lon="6.3094938733"><ele>1505.08</ele><time>2015-07-15T17:51:59Z</time></trkpt>
<trkpt lat="46.6019652598" lon="6.3098683767"><ele>1503.16</ele><time>2015-07-15T17:52:11Z</time></trkpt>
<trkpt lat="46.6022421140" lon="6.3103665132"><ele>1499.79</ele><time>2015-07-15T17:52:20Z</time></trkpt>
<trkpt lat="46.6023721173" lon="6.3105142862"><ele>1498.35</ele><time>2015-07-15T17:52:23Z</time></trkpt>
<trkpt lat="46.6024503205" lon="6.3106100075"><ele>1497.87</ele><time>2015-07-15T17:52:25Z</time></trkpt>
<trkpt lat="46.6028506402" lon="6.3109645620"><ele>1495.95</ele><time>2015-07-15T17:52:34Z</time></trkpt>
<trkpt lat="46.6030673962" lon="6.3112649694"><ele>1494.99</ele><time>2015-07-15T17:52:40Z</time></trkpt>
<trkpt lat="46.6031321045" lon="6.3114249799"><ele>1494.51</ele><time>2015-07-15T17:52:43Z</time></trkpt>
<trkpt lat="46.6033099685" lon="6.3116269838"><ele>1493.06</ele><time>2015-07-15T17:52:48Z</time></trkpt>
<trkpt lat="46.6035013273" lon="6.3116774429"><ele>1492.1</ele><time>2015-07-15T17:52:52Z</time></trkpt>
<trkpt lat="46.6038209293" lon="6.3118772674"><ele>1491.14</ele><time>2015-07-15T17:53:01Z</time></trkpt>
<trkpt lat="46.6039561294" lon="6.3119630981"><ele>1489.7</ele><time>2015-07-15T17:53:05Z</time></trkpt>
<trkpt lat="46.6042077541" lon="6.3121026568"><ele>1488.26</ele><time>2015-07-15T17:53:11Z</time></trkpt>
<trkpt lat="46.6045437008" lon="6.3125429582"><ele>1483.93</ele><time>2015-07-15T17:53:22Z</time></trkpt>
<trkpt lat="46.6045885440" lon="6.3126364164"><ele>1483.45</ele><time>2015-07-15T17:53:25Z</time></trkpt>
<trkpt lat="46.6047181282" lon="6.3127513323"><ele>1482.49</ele><time>2015-07-15T17:53:30Z</time></trkpt>
<trkpt lat="46.6049028654" lon="6.3131208066"><ele>1482.49</ele><time>2015-07-15T17:53:39Z</time></trkpt>
<trkpt lat="46.6051195376" lon="6.3134902809"><ele>1482.49</ele><time>2015-07-15T17:53:49Z</time></trkpt>
<trkpt lat="46.6054531373" lon="6.3139756769"><ele>1481.53</ele><time>2015-07-15T17:54:03Z</time></trkpt>
<trkpt lat="46.6057425644" lon="6.3143606577"><ele>1480.57</ele><time>2015-07-15T17:54:13Z</time></trkpt>
<trkpt lat="46.6060996335" lon="6.3148776535"><ele>1477.68</ele><time>2015-07-15T17:54:24Z</time></trkpt>
<trkpt lat="46.6061411239" lon="6.3149294537"><ele>1477.68</ele><time>2015-07-15T17:54:25Z</time></trkpt>
<trkpt lat="46.6062412877" lon="6.3150868658"><ele>1477.68</ele><time>2015-07-15T17:54:28Z</time></trkpt>
<trkpt lat="46.6063850373" lon="6.3152372371"><ele>1477.68</ele><time>2015-07-15T17:54:32Z</time></trkpt>
<trkpt lat="46.6065318882" lon="6.3154190406"><ele>1478.65</ele><time>2015-07-15T17:54:37Z</time></trkpt>
<trkpt lat="46.6068251710" lon="6.3158028480"><ele>1478.65</ele><time>2015-07-15T17:54:49Z</time></trkpt>
<trkpt lat="46.6069873609" lon="6.3160956278"><ele>1478.65</ele><time>2015-07-15T17:54:57Z</time></trkpt>
<trkpt lat="46.6073159315" lon="6.3165706303"><ele>1476.72</ele><time>2015-07-15T17:55:09Z</time></trkpt>
<trkpt lat="46.6075047757" lon="6.3169404399"><ele>1477.2</ele><time>2015-07-15T17:55:18Z</time></trkpt>
<trkpt lat="46.6077697277" lon="6.3173940685"><ele>1479.13</ele><time>2015-07-15T17:55:31Z</time></trkpt>
<trkpt lat="46.6080076899" lon="6.3178397343"><ele>1480.09</ele><time>2015-07-15T17:55:43Z</time></trkpt>
<trkpt lat="46.6081759986" lon="6.3181810454"><ele>1481.53</ele><time>2015-07-15T17:55:54Z</time></trkpt>
<trkpt lat="46.6084428784" lon="6.3184340112"><ele>1479.61</ele><time>2015-07-15T17:56:05Z</time></trkpt>
<trkpt lat="46.6084955167" lon="6.3185337558"><ele>1478.65</ele><time>2015-07-15T17:56:11Z</time></trkpt>
<trkpt lat="46.6085064970" lon="6.3185589015"><ele>1479.13</ele><time>2015-07-15T17:56:21Z</time></trkpt>
<trkpt lat="46.6085250210" lon="6.3185989670"><ele>1478.65</ele><time>2015-07-15T17:56:31Z</time></trkpt>
<trkpt lat="46.6085550282" lon="6.3186240289"><ele>1478.65</ele><time>2015-07-15T17:56:47Z</time></trkpt>
<trkpt lat="46.6085597221" lon="6.3186298963"><ele>1479.13</ele><time>2015-07-15T17:56:55Z</time></trkpt>
<trkpt lat="46.6087337304" lon="6.3189331535"><ele>1477.2</ele><time>2015-07-15T17:57:04Z</time></trkpt>
<trkpt lat="46.6087670904" lon="6.3189726323"><ele>1476.72</ele><time>2015-07-15T17:57:05Z</time></trkpt>
<trkpt lat="46.6089548450" lon="6.3190743048"><ele>1474.8</ele><time>2015-07-15T17:57:09Z</time></trkpt>
<trkpt lat="46.6092499718" lon="6.3190556131"><ele>1473.36</ele><time>2015-07-15T17:57:14Z</time></trkpt>
<trkpt lat="46.6095317714" lon="6.3191007916"><ele>1474.32</ele><time>2015-07-15T17:57:22Z</time></trkpt>
<trkpt lat="46.6097305063" lon="6.3192502409"><ele>1474.32</ele><time>2015-07-15T17:57:29Z</time></trkpt>
<trkpt lat="46.6098963004" lon="6.3197187893"><ele>1472.4</ele><time>2015-07-15T17:57:40Z</time></trkpt>
<trkpt lat="46.6102418862" lon="6.3201129064"><ele>1469.03</ele><time>2015-07-15T17:57:52Z</time></trkpt>
<trkpt lat="46.6103823669" lon="6.3203006610"><ele>1467.11</ele><time>2015-07-15T17:57:56Z</time></trkpt>
<trkpt lat="46.6105392762" lon="6.3205958717"><ele>1464.71</ele><time>2015-07-15T17:58:01Z</time></trkpt>
<trkpt lat="46.6109380871" lon="6.3211387675"><ele>1455.57</ele><time>2015-07-15T17:58:10Z</time></trkpt>
<trkpt lat="46.6111663263" lon="6.3215014525"><ele>1448.84</ele><time>2015-07-15T17:58:16Z</time></trkpt>
<trkpt lat="46.6111274343" lon="6.3218713459"><ele>1443.56</ele><time>2015-07-15T17:58:22Z</time></trkpt>
<trkpt lat="46.6109958384" lon="6.3218659814"><ele>1443.08</ele><time>2015-07-15T17:58:26Z</time></trkpt>
<trkpt lat="46.6107800044" lon="6.3216118421"><ele>1445</ele><time>2015-07-15T17:58:37Z</time></trkpt>
<trkpt lat="46.6105337441" lon="6.3215778954"><ele>1447.4</ele><time>2015-07-15T17:58:46Z</time></trkpt>
<trkpt lat="46.6103207599" lon="6.3218196295"><ele>1447.88</ele><time>2015-07-15T17:58:54Z</time></trkpt>
<trkpt lat="46.6102692951" lon="6.3220560830"><ele>1446.92</ele><time>2015-07-15T17:58:58Z</time></trkpt>
<trkpt lat="46.6102331690" lon="6.3223713264"><ele>1444.52</ele><time>2015-07-15T17:59:02Z</time></trkpt>
<trkpt lat="46.6103445645" lon="6.3228743244"><ele>1440.67</ele><time>2015-07-15T17:59:07Z</time></trkpt>
<trkpt lat="46.6108427010" lon="6.3236112613"><ele>1435.39</ele><time>2015-07-15T17:59:17Z</time></trkpt>
<trkpt lat="46.6109577846" lon="6.3237457909"><ele>1434.91</ele><time>2015-07-15T17:59:20Z</time></trkpt>
<trkpt lat="46.6111208126" lon="6.3238820806"><ele>1434.42</ele><time>2015-07-15T17:59:24Z</time></trkpt>
<trkpt lat="46.6112669092" lon="6.3242899440"><ele>1431.54</ele><time>2015-07-15T17:59:30Z</time></trkpt>
<trkpt lat="46.6113093216" lon="6.3247356936"><ele>1428.66</ele><time>2015-07-15T17:59:35Z</time></trkpt>
<trkpt lat="46.6113230679" lon="6.3254261110"><ele>1424.33</ele><time>2015-07-15T17:59:42Z</time></trkpt>
<trkpt lat="46.6114270873" lon="6.3258741237"><ele>1421.45</ele><time>2015-07-15T17:59:46Z</time></trkpt>
<trkpt lat="46.6118455119" lon="6.3269304112"><ele>1416.16</ele><time>2015-07-15T17:59:56Z</time></trkpt>
<trkpt lat="46.6120518744" lon="6.3272865582"><ele>1415.2</ele><time>2015-07-15T18:00:00Z</time></trkpt>
<trkpt lat="46.6121610068" lon="6.3274277095"><ele>1414.72</ele><time>2015-07-15T18:00:02Z</time></trkpt>
<trkpt lat="46.6128430422" lon="6.3278861996"><ele>1416.16</ele><time>2015-07-15T18:00:13Z</time></trkpt>
<trkpt lat="46.6136837471" lon="6.3283459470"><ele>1415.2</ele><time>2015-07-15T18:00:26Z</time></trkpt>
<trkpt lat="46.6140913591" lon="6.3285943028"><ele>1415.68</ele><time>2015-07-15T18:00:35Z</time></trkpt>
<trkpt lat="46.6142754257" lon="6.3287804648"><ele>1415.68</ele><time>2015-07-15T18:00:44Z</time></trkpt>
<trkpt lat="46.6144582350" lon="6.3290441595"><ele>1414.72</ele><time>2015-07-15T18:00:53Z</time></trkpt>
<trkpt lat="46.6144807823" lon="6.3290820457"><ele>1414.24</ele><time>2015-07-15T18:00:54Z</time></trkpt>
<trkpt lat="46.6147529427" lon="6.3297113590"><ele>1409.91</ele><time>2015-07-15T18:01:03Z</time></trkpt>
<trkpt lat="46.6151444614" lon="6.3301731180"><ele>1405.58</ele><time>2015-07-15T18:01:09Z</time></trkpt>
<trkpt lat="46.6153505724" lon="6.3306399900"><ele>1402.22</ele><time>2015-07-15T18:01:14Z</time></trkpt>
<trkpt lat="46.6158604436" lon="6.3315088581"><ele>1395.01</ele><time>2015-07-15T18:01:22Z</time></trkpt>
<trkpt lat="46.6159400716" lon="6.3316132966"><ele>1393.57</ele><time>2015-07-15T18:01:23Z</time></trkpt>
<trkpt lat="46.6167884041" lon="6.3323355652"><ele>1385.88</ele><time>2015-07-15T18:01:32Z</time></trkpt>
<trkpt lat="46.6172298789" lon="6.3323887903"><ele>1381.55</ele><time>2015-07-15T18:01:38Z</time></trkpt>
<trkpt lat="46.6176792327" lon="6.3321475592"><ele>1378.19</ele><time>2015-07-15T18:01:47Z</time></trkpt>
<trkpt lat="46.6178947315" lon="6.3321095891"><ele>1378.19</ele><time>2015-07-15T18:01:52Z</time></trkpt>
<trkpt lat="46.6180794686" lon="6.3321808353"><ele>1378.67</ele><time>2015-07-15T18:01:56Z</time></trkpt>
<trkpt lat="46.6182163451" lon="6.3323048875"><ele>1377.71</ele><time>2015-07-15T18:01:59Z</time></trkpt>
<trkpt lat="46.6183683090" lon="6.3325992599"><ele>1375.78</ele><time>2015-07-15T18:02:03Z</time></trkpt>
<trkpt lat="46.6185506992" lon="6.3328888547"><ele>1372.9</ele><time>2015-07-15T18:02:07Z</time></trkpt>
<trkpt lat="46.6187490150" lon="6.3333921041"><ele>1370.5</ele><time>2015-07-15T18:02:13Z</time></trkpt>
<trkpt lat="46.6187806986" lon="6.3336702995"><ele>1370.02</ele><time>2015-07-15T18:02:16Z</time></trkpt>
<trkpt lat="46.6189128812" lon="6.3339186553"><ele>1370.02</ele><time>2015-07-15T18:02:20Z</time></trkpt>
<trkpt lat="46.6189965326" lon="6.3340018876"><ele>1370.02</ele><time>2015-07-15T18:02:22Z</time></trkpt>
<trkpt lat="46.6193807591" lon="6.3344173785"><ele>1368.57</ele><time>2015-07-15T18:02:33Z</time></trkpt>
<trkpt lat="46.6194732953" lon="6.3346393313"><ele>1368.09</ele><time>2015-07-15T18:02:38Z</time></trkpt>
<trkpt lat="46.6197720263" lon="6.3350269943"><ele>1364.73</ele><time>2015-07-15T18:02:46Z</time></trkpt>
<trkpt lat="46.6199588589" lon="6.3352556527"><ele>1361.36</ele><time>2015-07-15T18:02:50Z</time></trkpt>
<trkpt lat="46.6201003455" lon="6.3355716504"><ele>1357.04</ele><time>2015-07-15T18:02:54Z</time></trkpt>
<trkpt lat="46.6203248966" lon="6.3359288871"><ele>1350.79</ele><time>2015-07-15T18:03:00Z</time></trkpt>
<trkpt lat="46.6205573268" lon="6.3362863753"><ele>1345.5</ele><time>2015-07-15T18:03:06Z</time></trkpt>
<trkpt lat="46.6207411420" lon="6.3368928060"><ele>1339.25</ele><time>2015-07-15T18:03:14Z</time></trkpt>
<trkpt lat="46.6208074428" lon="6.3371036947"><ele>1337.33</ele><time>2015-07-15T18:03:17Z</time></trkpt>
<trkpt lat="46.6210161522" lon="6.3374351151"><ele>1332.52</ele><time>2015-07-15T18:03:23Z</time></trkpt>
<trkpt lat="46.6212500073" lon="6.3376700599"><ele>1327.72</ele><time>2015-07-15T18:03:28Z</time></trkpt>
<trkpt lat="46.6214608122" lon="6.3379086088"><ele>1323.87</ele><time>2015-07-15T18:03:33Z</time></trkpt>
<trkpt lat="46.6218420211" lon="6.3384379260"><ele>1319.07</ele><time>2015-07-15T18:03:41Z</time></trkpt>
<trkpt lat="46.6222484596" lon="6.3390302751"><ele>1315.7</ele><time>2015-07-15T18:03:48Z</time></trkpt>
<trkpt lat="46.6224181931" lon="6.3394014258"><ele>1314.74</ele><time>2015-07-15T18:03:52Z</time></trkpt>
<trkpt lat="46.6226474382" lon="6.3401225209"><ele>1314.26</ele><time>2015-07-15T18:04:00Z</time></trkpt>
<trkpt lat="46.6229004879" lon="6.3404023089"><ele>1313.3</ele><time>2015-07-15T18:04:06Z</time></trkpt>
<trkpt lat="46.6233116202" lon="6.3404973596"><ele>1309.45</ele><time>2015-07-15T18:04:13Z</time></trkpt>
<trkpt lat="46.6234495863" lon="6.3405026402"><ele>1308.49</ele><time>2015-07-15T18:04:15Z</time></trkpt>
<trkpt lat="46.6239382513" lon="6.3407775667"><ele>1304.17</ele><time>2015-07-15T18:04:22Z</time></trkpt>
<trkpt lat="46.6242168657" lon="6.3409695122"><ele>1301.28</ele><time>2015-07-15T18:04:26Z</time></trkpt>
<trkpt lat="46.6244793031" lon="6.3414326962"><ele>1297.92</ele><time>2015-07-15T18:04:31Z</time></trkpt>
<trkpt lat="46.6246865038" lon="6.3417849038"><ele>1295.03</ele><time>2015-07-15T18:04:35Z</time></trkpt>
<trkpt lat="46.6249556467" lon="6.3422157336"><ele>1292.63</ele><time>2015-07-15T18:04:40Z</time></trkpt>
<trkpt lat="46.6250502784" lon="6.3425066695"><ele>1292.15</ele><time>2015-07-15T18:04:47Z</time></trkpt>
<trkpt lat="46.6252221074" lon="6.3429872878"><ele>1291.67</ele><time>2015-07-15T18:04:58Z</time></trkpt>
<trkpt lat="46.6253607441" lon="6.3435333688"><ele>1291.19</ele><time>2015-07-15T18:05:09Z</time></trkpt>
<trkpt lat="46.6254305653" lon="6.3440520409"><ele>1290.23</ele><time>2015-07-15T18:05:20Z</time></trkpt>
<trkpt lat="46.6254964471" lon="6.3445126265"><ele>1290.71</ele><time>2015-07-15T18:05:30Z</time></trkpt>
<trkpt lat="46.6256705392" lon="6.3449006248"><ele>1291.19</ele><time>2015-07-15T18:05:41Z</time></trkpt>
<trkpt lat="46.6259247623" lon="6.3450131938"><ele>1290.23</ele><time>2015-07-15T18:05:50Z</time></trkpt>
<trkpt lat="46.6262365691" lon="6.3452107552"><ele>1289.27</ele><time>2015-07-15T18:06:01Z</time></trkpt>
<trkpt lat="46.6267410759" lon="6.3457667269"><ele>1288.3</ele><time>2015-07-15T18:06:16Z</time></trkpt>
<trkpt lat="46.6274323314" lon="6.3465315755"><ele>1285.42</ele><time>2015-07-15T18:06:33Z</time></trkpt>
<trkpt lat="46.6278053261" lon="6.3469421212"><ele>1284.46</ele><time>2015-07-15T18:06:41Z</time></trkpt>
<trkpt lat="46.6279303841" lon="6.3472225796"><ele>1283.5</ele><time>2015-07-15T18:06:45Z</time></trkpt>
<trkpt lat="46.6280651651" lon="6.3478197902"><ele>1282.06</ele><time>2015-07-15T18:06:52Z</time></trkpt>
<trkpt lat="46.6282506566" lon="6.3481124863"><ele>1283.02</ele><time>2015-07-15T18:06:57Z</time></trkpt>
<trkpt lat="46.6286177840" lon="6.3483316731"><ele>1285.42</ele><time>2015-07-15T18:07:08Z</time></trkpt>
<trkpt lat="46.6288922075" lon="6.3484202698"><ele>1285.9</ele><time>2015-07-15T18:07:21Z</time></trkpt>
<trkpt lat="46.6291476041" lon="6.3484541327"><ele>1287.82</ele><time>2015-07-15T18:07:32Z</time></trkpt>
<trkpt lat="46.6294592433" lon="6.3485837169"><ele>1292.63</ele><time>2015-07-15T18:07:46Z</time></trkpt>
<trkpt lat="46.6298241913" lon="6.3487506006"><ele>1295.51</ele><time>2015-07-15T18:08:04Z</time></trkpt>
<trkpt lat="46.6298786737" lon="6.3487615809"><ele>1295.99</ele><time>2015-07-15T18:08:07Z</time></trkpt>
<trkpt lat="46.6300460603" lon="6.3487984613"><ele>1296.48</ele><time>2015-07-15T18:08:16Z</time></trkpt>
<trkpt lat="46.6301504988" lon="6.3488223497"><ele>1296.96</ele><time>2015-07-15T18:08:22Z</time></trkpt>
<trkpt lat="46.6303156223" lon="6.3488543686"><ele>1298.4</ele><time>2015-07-15T18:08:31Z</time></trkpt>
<trkpt lat="46.6303475574" lon="6.3488826156"><ele>1298.88</ele><time>2015-07-15T18:08:33Z</time></trkpt>
<trkpt lat="46.6303535923" lon="6.3489934243"><ele>1300.32</ele><time>2015-07-15T18:08:38Z</time></trkpt>
<trkpt lat="46.6304588690" lon="6.3494439516"><ele>1301.76</ele><time>2015-07-15T18:08:53Z</time></trkpt>
<trkpt lat="46.6306659020" lon="6.3496549241"><ele>1302.72</ele><time>2015-07-15T18:09:03Z</time></trkpt>
<trkpt lat="46.6307719331" lon="6.3497980032"><ele>1304.17</ele><time>2015-07-15T18:09:11Z</time></trkpt>
<trkpt lat="46.6309772898" lon="6.3499013521"><ele>1304.17</ele><time>2015-07-15T18:09:21Z</time></trkpt>
<trkpt lat="46.6311911959" lon="6.3499651384"><ele>1302.24</ele><time>2015-07-15T18:09:26Z</time></trkpt>
<trkpt lat="46.6314552259" lon="6.3501902763"><ele>1300.32</ele><time>2015-07-15T18:09:32Z</time></trkpt>
<trkpt lat="46.6315981373" lon="6.3504742552"><ele>1298.88</ele><time>2015-07-15T18:09:36Z</time></trkpt>
<trkpt lat="46.6318963654" lon="6.3513480686"><ele>1293.11</ele><time>2015-07-15T18:09:47Z</time></trkpt>
<trkpt lat="46.6322701145" lon="6.3520003483"><ele>1290.23</ele><time>2015-07-15T18:09:57Z</time></trkpt>
<trkpt lat="46.6328748688" lon="6.3527888339"><ele>1286.38</ele><time>2015-07-15T18:10:10Z</time></trkpt>
<trkpt lat="46.6333940439" lon="6.3534589671"><ele>1283.5</ele><time>2015-07-15T18:10:22Z</time></trkpt>
<trkpt lat="46.6337888315" lon="6.3539671618"><ele>1282.06</ele><time>2015-07-15T18:10:31Z</time></trkpt>
<trkpt lat="46.6338251252" lon="6.3540285174"><ele>1281.57</ele><time>2015-07-15T18:10:32Z</time></trkpt>
<trkpt lat="46.6339790169" lon="6.3543123286"><ele>1280.13</ele><time>2015-07-15T18:10:36Z</time></trkpt>
<trkpt lat="46.6341583896" lon="6.3545333594"><ele>1277.25</ele><time>2015-07-15T18:10:39Z</time></trkpt>
<trkpt lat="46.6345586255" lon="6.3547372911"><ele>1272.92</ele><time>2015-07-15T18:10:44Z</time></trkpt>
<trkpt lat="46.6353742685" lon="6.3550770935"><ele>1265.71</ele><time>2015-07-15T18:10:53Z</time></trkpt>
<trkpt lat="46.6356327664" lon="6.3552531973"><ele>1263.31</ele><time>2015-07-15T18:10:56Z</time></trkpt>
<trkpt lat="46.6360002290" lon="6.3554431312"><ele>1259.46</ele><time>2015-07-15T18:11:00Z</time></trkpt>
<trkpt lat="46.6364586353" lon="6.3558001164"><ele>1253.22</ele><time>2015-07-15T18:11:05Z</time></trkpt>
<trkpt lat="46.6372756194" lon="6.3563648053"><ele>1242.64</ele><time>2015-07-15T18:11:13Z</time></trkpt>
<trkpt lat="46.6373627912" lon="6.3564320281"><ele>1241.68</ele><time>2015-07-15T18:11:14Z</time></trkpt>
<trkpt lat="46.6376112308" lon="6.3565726765"><ele>1238.8</ele><time>2015-07-15T18:11:17Z</time></trkpt>
<trkpt lat="46.6377475206" lon="6.3568610139"><ele>1234.47</ele><time>2015-07-15T18:11:22Z</time></trkpt>
<trkpt lat="46.6376186907" lon="6.3573231082"><ele>1229.18</ele><time>2015-07-15T18:11:27Z</time></trkpt>
<trkpt lat="46.6371636372" lon="6.3579895534"><ele>1220.53</ele><time>2015-07-15T18:11:34Z</time></trkpt>
<trkpt lat="46.6370938998" lon="6.3580555189"><ele>1219.09</ele><time>2015-07-15T18:11:35Z</time></trkpt>
<trkpt lat="46.6367748845" lon="6.3586632907"><ele>1211.4</ele><time>2015-07-15T18:11:41Z</time></trkpt>
<trkpt lat="46.6365102679" lon="6.3589110598"><ele>1207.07</ele><time>2015-07-15T18:11:44Z</time></trkpt>
<trkpt lat="46.6361723933" lon="6.3591178413"><ele>1203.23</ele><time>2015-07-15T18:11:47Z</time></trkpt>
<trkpt lat="46.6356957145" lon="6.3593235333"><ele>1196.98</ele><time>2015-07-15T18:11:52Z</time></trkpt>
<trkpt lat="46.6349167004" lon="6.3599413633"><ele>1187.37</ele><time>2015-07-15T18:12:01Z</time></trkpt>
<trkpt lat="46.6348501481" lon="6.3599938340"><ele>1186.4</ele><time>2015-07-15T18:12:02Z</time></trkpt>
<trkpt lat="46.6347170435" lon="6.3603330497"><ele>1181.12</ele><time>2015-07-15T18:12:07Z</time></trkpt>
<trkpt lat="46.6348259244" lon="6.3604331296"><ele>1177.75</ele><time>2015-07-15T18:12:10Z</time></trkpt>
<trkpt lat="46.6352503840" lon="6.3605531584"><ele>1172.95</ele><time>2015-07-15T18:12:17Z</time></trkpt>
<trkpt lat="46.6354649607" lon="6.3605105784"><ele>1170.54</ele><time>2015-07-15T18:12:20Z</time></trkpt>
<trkpt lat="46.6357149091" lon="6.3607155159"><ele>1167.66</ele><time>2015-07-15T18:12:25Z</time></trkpt>
<trkpt lat="46.6357048508" lon="6.3609221298"><ele>1166.22</ele><time>2015-07-15T18:12:27Z</time></trkpt>
<trkpt lat="46.6357196029" lon="6.3614444900"><ele>1163.33</ele><time>2015-07-15T18:12:32Z</time></trkpt>
<trkpt lat="46.6358358599" lon="6.3619522657"><ele>1161.41</ele><time>2015-07-15T18:12:37Z</time></trkpt>
<trkpt lat="46.6359739937" lon="6.3626494724"><ele>1155.16</ele><time>2015-07-15T18:12:44Z</time></trkpt>
<trkpt lat="46.6359512787" lon="6.3627541624"><ele>1154.2</ele><time>2015-07-15T18:12:45Z</time></trkpt>
<trkpt lat="46.6358519532" lon="6.3638510182"><ele>1144.11</ele><time>2015-07-15T18:12:53Z</time></trkpt>
<trkpt lat="46.6358159110" lon="6.3650900312"><ele>1131.13</ele><time>2015-07-15T18:13:01Z</time></trkpt>
<trkpt lat="46.6356564872" lon="6.3659806084"><ele>1122.48</ele><time>2015-07-15T18:13:08Z</time></trkpt>
<trkpt lat="46.6356159188" lon="6.3661109470"><ele>1121.52</ele><time>2015-07-15T18:13:09Z</time></trkpt>
<trkpt lat="46.6353673115" lon="6.3665901404"><ele>1117.19</ele><time>2015-07-15T18:13:13Z</time></trkpt>
<trkpt lat="46.6347700171" lon="6.3673420809"><ele>1109.98</ele><time>2015-07-15T18:13:21Z</time></trkpt>
<trkpt lat="46.6344393510" lon="6.3676978089"><ele>1105.65</ele><time>2015-07-15T18:13:27Z</time></trkpt>
<trkpt lat="46.6343048215" lon="6.3677512016"><ele>1105.17</ele><time>2015-07-15T18:13:34Z</time></trkpt>
<trkpt lat="46.6341126245" lon="6.3677646127"><ele>1105.65</ele><time>2015-07-15T18:13:40Z</time></trkpt>
<trkpt lat="46.6339304019" lon="6.3677009102"><ele>1104.69</ele><time>2015-07-15T18:13:44Z</time></trkpt>
<trkpt lat="46.6336829681" lon="6.3675195258"><ele>1103.73</ele><time>2015-07-15T18:13:49Z</time></trkpt>
<trkpt lat="46.6332258191" lon="6.3670523185"><ele>1102.29</ele><time>2015-07-15T18:13:58Z</time></trkpt>
<trkpt lat="46.6329547483" lon="6.3669387437"><ele>1101.33</ele><time>2015-07-15T18:14:02Z</time></trkpt>
<trkpt lat="46.6328147706" lon="6.3669381570"><ele>1100.85</ele><time>2015-07-15T18:14:04Z</time></trkpt>
<trkpt lat="46.6320723016" lon="6.3671716768"><ele>1098.92</ele><time>2015-07-15T18:14:17Z</time></trkpt>
<trkpt lat="46.6318264604" lon="6.3671779633"><ele>1098.92</ele><time>2015-07-15T18:14:22Z</time></trkpt>
<trkpt lat="46.6313131526" lon="6.3670052122"><ele>1097.96</ele><time>2015-07-15T18:14:33Z</time></trkpt>
<trkpt lat="46.6311636195" lon="6.3669283502"><ele>1097.96</ele><time>2015-07-15T18:14:36Z</time></trkpt>
<trkpt lat="46.6307490505" lon="6.3670439366"><ele>1097.48</ele><time>2015-07-15T18:14:43Z</time></trkpt>
<trkpt lat="46.6302448791" lon="6.3675217051"><ele>1094.12</ele><time>2015-07-15T18:14:51Z</time></trkpt>
<trkpt lat="46.6300209146" lon="6.3680376112"><ele>1091.71</ele><time>2015-07-15T18:14:56Z</time></trkpt>
<trkpt lat="46.6296127997" lon="6.3691451959"><ele>1084.99</ele><time>2015-07-15T18:15:06Z</time></trkpt>
<trkpt lat="46.6290744301" lon="6.3704531919"><ele>1081.14</ele><time>2015-07-15T18:15:18Z</time></trkpt>
<trkpt lat="46.6289636213" lon="6.3708783220"><ele>1080.66</ele><time>2015-07-15T18:15:22Z</time></trkpt>
<trkpt lat="46.6288749408" lon="6.3715555798"><ele>1079.7</ele><time>2015-07-15T18:15:28Z</time></trkpt>
<trkpt lat="46.6287549119" lon="6.3718916941"><ele>1078.74</ele><time>2015-07-15T18:15:32Z</time></trkpt>
<trkpt lat="46.6285921354" lon="6.3720907643"><ele>1078.26</ele><time>2015-07-15T18:15:36Z</time></trkpt>
<trkpt lat="46.6284931451" lon="6.3721427321"><ele>1077.78</ele><time>2015-07-15T18:15:38Z</time></trkpt>
<trkpt lat="46.6283893771" lon="6.3721752539"><ele>1077.29</ele><time>2015-07-15T18:15:40Z</time></trkpt>
<trkpt lat="46.6280882154" lon="6.3721959572"><ele>1077.29</ele><time>2015-07-15T18:15:46Z</time></trkpt>
<trkpt lat="46.6278907377" lon="6.3720491063"><ele>1076.33</ele><time>2015-07-15T18:15:51Z</time></trkpt>
<trkpt lat="46.6277621593" lon="6.3718191069"><ele>1076.33</ele><time>2015-07-15T18:15:55Z</time></trkpt>
<trkpt lat="46.6276093572" lon="6.3715167716"><ele>1077.29</ele><time>2015-07-15T18:16:00Z</time></trkpt>
<trkpt lat="46.6274635121" lon="6.3712352235"><ele>1079.22</ele><time>2015-07-15T18:16:05Z</time></trkpt>
<trkpt lat="46.6271879151" lon="6.3706790842"><ele>1083.06</ele><time>2015-07-15T18:16:15Z</time></trkpt>
<trkpt lat="46.6269486118" lon="6.3703849632"><ele>1086.43</ele><time>2015-07-15T18:16:22Z</time></trkpt>
<trkpt lat="46.6264343821" lon="6.3700467534"><ele>1089.31</ele><time>2015-07-15T18:16:33Z</time></trkpt>
<trkpt lat="46.6260554362" lon="6.3699005730"><ele>1091.23</ele><time>2015-07-15T18:16:41Z</time></trkpt>
<trkpt lat="46.6255329084" lon="6.3696893491"><ele>1092.2</ele><time>2015-07-15T18:16:51Z</time></trkpt>
<trkpt lat="46.6254366003" lon="6.3696341962"><ele>1092.2</ele><time>2015-07-15T18:16:53Z</time></trkpt>
<trkpt lat="46.6249766853" lon="6.3694254030"><ele>1092.68</ele><time>2015-07-15T18:17:01Z</time></trkpt>
<trkpt lat="46.6242688335" lon="6.3693182822"><ele>1091.23</ele><time>2015-07-15T18:17:11Z</time></trkpt>
<trkpt lat="46.6241147742" lon="6.3693037815"><ele>1090.75</ele><time>2015-07-15T18:17:13Z</time></trkpt>
<trkpt lat="46.6235147975" lon="6.3695644587"><ele>1087.39</ele><time>2015-07-15T18:17:20Z</time></trkpt>
<trkpt lat="46.6233375203" lon="6.3696762733"><ele>1085.95</ele><time>2015-07-15T18:17:22Z</time></trkpt>
<trkpt lat="46.6229476780" lon="6.3697618525"><ele>1080.66</ele><time>2015-07-15T18:17:26Z</time></trkpt>
<trkpt lat="46.6224129964" lon="6.3696826436"><ele>1073.45</ele><time>2015-07-15T18:17:31Z</time></trkpt>
<trkpt lat="46.6218377464" lon="6.3697730005"><ele>1066.24</ele><time>2015-07-15T18:17:37Z</time></trkpt>
<trkpt lat="46.6211323254" lon="6.3696287479"><ele>1056.15</ele><time>2015-07-15T18:17:44Z</time></trkpt>
<trkpt lat="46.6200275067" lon="6.3693302684"><ele>1041.73</ele><time>2015-07-15T18:17:53Z</time></trkpt>
<trkpt lat="46.6199211404" lon="6.3692937233"><ele>1039.8</ele><time>2015-07-15T18:17:54Z</time></trkpt>
<trkpt lat="46.6194678470" lon="6.3694958109"><ele>1033.55</ele><time>2015-07-15T18:17:59Z</time></trkpt>
<trkpt lat="46.6191964410" lon="6.3696438354"><ele>1029.71</ele><time>2015-07-15T18:18:02Z</time></trkpt>
<trkpt lat="46.6185305826" lon="6.3698492758"><ele>1022.02</ele><time>2015-07-15T18:18:09Z</time></trkpt>
<trkpt lat="46.6182442568" lon="6.3696207851"><ele>1015.77</ele><time>2015-07-15T18:18:14Z</time></trkpt>
<trkpt lat="46.6179943923" lon="6.3695224654"><ele>1010.96</ele><time>2015-07-15T18:18:18Z</time></trkpt>
<trkpt lat="46.6179142613" lon="6.3698843960"><ele>1006.16</ele><time>2015-07-15T18:18:22Z</time></trkpt>
<trkpt lat="46.6179367248" lon="6.3701186702"><ele>1003.27</ele><time>2015-07-15T18:18:24Z</time></trkpt>
<trkpt lat="46.6181404050" lon="6.3706120290"><ele>998.47</ele><time>2015-07-15T18:18:29Z</time></trkpt>
<trkpt lat="46.6184735019" lon="6.3709065691"><ele>994.62</ele><time>2015-07-15T18:18:33Z</time></trkpt>
<trkpt lat="46.6189767513" lon="6.3710921444"><ele>989.33</ele><time>2015-07-15T18:18:38Z</time></trkpt>
<trkpt lat="46.6192841996" lon="6.3714470342"><ele>983.09</ele><time>2015-07-15T18:18:43Z</time></trkpt>
<trkpt lat="46.6196984332" lon="6.3722846378"><ele>972.51</ele><time>2015-07-15T18:18:51Z</time></trkpt>
<trkpt lat="46.6199905425" lon="6.3726940099"><ele>965.78</ele><time>2015-07-15T18:18:56Z</time></trkpt>
<trkpt lat="46.6201276705" lon="6.3730514981"><ele>960.49</ele><time>2015-07-15T18:19:02Z</time></trkpt>
<trkpt lat="46.6200063005" lon="6.3730808347"><ele>957.61</ele><time>2015-07-15T18:19:05Z</time></trkpt>
<trkpt lat="46.6199084837" lon="6.3730492350"><ele>956.17</ele><time>2015-07-15T18:19:07Z</time></trkpt>
<trkpt lat="46.6196841002" lon="6.3729552738"><ele>953.28</ele><time>2015-07-15T18:19:11Z</time></trkpt>
<trkpt lat="46.6192881390" lon="6.3728187326"><ele>949.44</ele><time>2015-07-15T18:19:17Z</time></trkpt>
<trkpt lat="46.6190048307" lon="6.3729629014"><ele>947.52</ele><time>2015-07-15T18:19:22Z</time></trkpt>
<trkpt lat="46.6186592449" lon="6.3729034737"><ele>945.11</ele><time>2015-07-15T18:19:27Z</time></trkpt>
<trkpt lat="46.6186066903" lon="6.3728374243"><ele>944.63</ele><time>2015-07-15T18:19:28Z</time></trkpt>
<trkpt lat="46.6185027547" lon="6.3726980332"><ele>944.15</ele><time>2015-07-15T18:19:30Z</time></trkpt>
<trkpt lat="46.6182611044" lon="6.3726026472"><ele>942.71</ele><time>2015-07-15T18:19:35Z</time></trkpt>
<trkpt lat="46.6182879265" lon="6.3727784157"><ele>941.27</ele><time>2015-07-15T18:19:39Z</time></trkpt>
<trkpt lat="46.6184857395" lon="6.3730846066"><ele>938.38</ele><time>2015-07-15T18:19:44Z</time></trkpt>
<trkpt lat="46.6185736656" lon="6.3733989280"><ele>936.94</ele><time>2015-07-15T18:19:47Z</time></trkpt>
<trkpt lat="46.6189183295" lon="6.3737445138"><ele>932.14</ele><time>2015-07-15T18:19:52Z</time></trkpt>
<trkpt lat="46.6190200020" lon="6.3739030994"><ele>930.21</ele><time>2015-07-15T18:19:54Z</time></trkpt>
<trkpt lat="46.6190840397" lon="6.3741253875"><ele>927.81</ele><time>2015-07-15T18:19:56Z</time></trkpt>
<trkpt lat="46.6192722134" lon="6.3747319859"><ele>919.64</ele><time>2015-07-15T18:20:02Z</time></trkpt>
<trkpt lat="46.6190464888" lon="6.3748153020"><ele>913.87</ele><time>2015-07-15T18:20:06Z</time></trkpt>
<trkpt lat="46.6185427364" lon="6.3745163195"><ele>905.22</ele><time>2015-07-15T18:20:12Z</time></trkpt>
<trkpt lat="46.6177177895" lon="6.3743646909"><ele>895.12</ele><time>2015-07-15T18:20:19Z</time></trkpt>
<trkpt lat="46.6167521104" lon="6.3739571627"><ele>885.03</ele><time>2015-07-15T18:20:27Z</time></trkpt>
<trkpt lat="46.6161154211" lon="6.3736782130"><ele>879.74</ele><time>2015-07-15T18:20:33Z</time></trkpt>
<trkpt lat="46.6157096531" lon="6.3736604434"><ele>876.86</ele><time>2015-07-15T18:20:38Z</time></trkpt>
<trkpt lat="46.6152864508" lon="6.3738034386"><ele>874.46</ele><time>2015-07-15T18:20:43Z</time></trkpt>
<trkpt lat="46.6149277892" lon="6.3740258943"><ele>872.53</ele><time>2015-07-15T18:20:47Z</time></trkpt>
<trkpt lat="46.6143076960" lon="6.3743522018"><ele>866.29</ele><time>2015-07-15T18:20:54Z</time></trkpt>
<trkpt lat="46.6142103821" lon="6.3743654452"><ele>865.32</ele><time>2015-07-15T18:20:55Z</time></trkpt>
<trkpt lat="46.6133151948" lon="6.3742100447"><ele>853.79</ele><time>2015-07-15T18:21:03Z</time></trkpt>
<trkpt lat="46.6131106764" lon="6.3741279021"><ele>850.42</ele><time>2015-07-15T18:21:05Z</time></trkpt>
<trkpt lat="46.6127106082" lon="6.3741322607"><ele>844.18</ele><time>2015-07-15T18:21:09Z</time></trkpt>
<trkpt lat="46.6119767725" lon="6.3744392060"><ele>834.08</ele><time>2015-07-15T18:21:16Z</time></trkpt>
<trkpt lat="46.6117597651" lon="6.3745858055"><ele>831.68</ele><time>2015-07-15T18:21:18Z</time></trkpt>
<trkpt lat="46.6113085672" lon="6.3747603167"><ele>826.39</ele><time>2015-07-15T18:21:22Z</time></trkpt>
<trkpt lat="46.6109511629" lon="6.3748022262"><ele>822.06</ele><time>2015-07-15T18:21:25Z</time></trkpt>
<trkpt lat="46.6103253700" lon="6.3752292003"><ele>813.41</ele><time>2015-07-15T18:21:31Z</time></trkpt>
<trkpt lat="46.6095828172" lon="6.3755803183"><ele>805.24</ele><time>2015-07-15T18:21:37Z</time></trkpt>
<trkpt lat="46.6083770804" lon="6.3761844020"><ele>795.63</ele><time>2015-07-15T18:21:47Z</time></trkpt>
<trkpt lat="46.6077073663" lon="6.3765551336"><ele>788.9</ele><time>2015-07-15T18:21:55Z</time></trkpt>
<trkpt lat="46.6075578332" lon="6.3766607456"><ele>786.98</ele><time>2015-07-15T18:21:58Z</time></trkpt>
<trkpt lat="46.6072909534" lon="6.3769556209"><ele>782.17</ele><time>2015-07-15T18:22:08Z</time></trkpt>
<trkpt lat="46.6072578449" lon="6.3769646734"><ele>783.13</ele><time>2015-07-15T18:22:14Z</time></trkpt>
<trkpt lat="46.6072298493" lon="6.3771498296"><ele>782.65</ele><time>2015-07-15T18:22:22Z</time></trkpt>
<trkpt lat="46.6072771233" lon="6.3771599717"><ele>783.13</ele><time>2015-07-15T18:22:28Z</time></trkpt>
<trkpt lat="46.6072730999" lon="6.3771652523"><ele>782.65</ele><time>2015-07-15T18:22:42Z</time></trkpt>
<trkpt lat="46.6072805598" lon="6.3771553617"><ele>782.65</ele><time>2015-07-15T18:23:01Z</time></trkpt>
<trkpt lat="46.6072816495" lon="6.3771515898"><ele>782.65</ele><time>2015-07-15T18:23:03Z</time></trkpt>
<trkpt lat="46.6072920430" lon="6.3770529348"><ele>783.61</ele><time>2015-07-15T18:23:11Z</time></trkpt>
<trkpt lat="46.6072569229" lon="6.3769904058"><ele>784.09</ele><time>2015-07-15T18:23:15Z</time></trkpt>
<trkpt lat="46.6069226526" lon="6.3767065108"><ele>785.53</ele><time>2015-07-15T18:23:27Z</time></trkpt>
<trkpt lat="46.6067987680" lon="6.3766497653"><ele>785.53</ele><time>2015-07-15T18:23:30Z</time></trkpt>
<trkpt lat="46.6063489951" lon="6.3765781838"><ele>786.5</ele><time>2015-07-15T18:23:41Z</time></trkpt>
<trkpt lat="46.6061169002" lon="6.3764274772"><ele>786.98</ele><time>2015-07-15T18:23:47Z</time></trkpt>
<trkpt lat="46.6055976413" lon="6.3760666363"><ele>786.5</ele><time>2015-07-15T18:23:59Z</time></trkpt>
<trkpt lat="46.6055560671" lon="6.3760440052"><ele>786.5</ele><time>2015-07-15T18:24:00Z</time></trkpt>
<trkpt lat="46.6051662248" lon="6.3758502994"><ele>789.38</ele><time>2015-07-15T18:24:11Z</time></trkpt>
<trkpt lat="46.6047711857" lon="6.3755766302"><ele>793.22</ele><time>2015-07-15T18:24:24Z</time></trkpt>
<trkpt lat="46.6044464707" lon="6.3752374146"><ele>799.47</ele><time>2015-07-15T18:24:35Z</time></trkpt>
<trkpt lat="46.6041349154" lon="6.3749898970"><ele>802.36</ele><time>2015-07-15T18:24:44Z</time></trkpt>
<trkpt lat="46.6035963781" lon="6.3745827042"><ele>801.88</ele><time>2015-07-15T18:24:56Z</time></trkpt>
<trkpt lat="46.6031989921" lon="6.3744890783"><ele>798.03</ele><time>2015-07-15T18:25:06Z</time></trkpt>
<trkpt lat="46.6030911170" lon="6.3745191693"><ele>796.59</ele><time>2015-07-15T18:25:09Z</time></trkpt>
<trkpt lat="46.6026046313" lon="6.3745102007"><ele>792.26</ele><time>2015-07-15T18:25:18Z</time></trkpt>
<trkpt lat="46.6022997815" lon="6.3744488452"><ele>789.86</ele><time>2015-07-15T18:25:26Z</time></trkpt>
<trkpt lat="46.6021025553" lon="6.3741791993"><ele>790.82</ele><time>2015-07-15T18:25:35Z</time></trkpt>
<trkpt lat="46.6020759009" lon="6.3737098966"><ele>791.3</ele><time>2015-07-15T18:25:46Z</time></trkpt>
<trkpt lat="46.6019590572" lon="6.3733695075"><ele>790.34</ele><time>2015-07-15T18:25:54Z</time></trkpt>
<trkpt lat="46.6018580552" lon="6.3732583635"><ele>789.86</ele><time>2015-07-15T18:25:57Z</time></trkpt>
<trkpt lat="46.6013028380" lon="6.3728998695"><ele>790.34</ele><time>2015-07-15T18:26:11Z</time></trkpt>
<trkpt lat="46.6011595912" lon="6.3727935031"><ele>790.34</ele><time>2015-07-15T18:26:15Z</time></trkpt>
<trkpt lat="46.6010280792" lon="6.3723785151"><ele>788.42</ele><time>2015-07-15T18:26:22Z</time></trkpt>
<trkpt lat="46.6010518000" lon="6.3722901698"><ele>787.94</ele><time>2015-07-15T18:26:23Z</time></trkpt>
<trkpt lat="46.6011652909" lon="6.3718914427"><ele>786.02</ele><time>2015-07-15T18:26:27Z</time></trkpt>
<trkpt lat="46.6012575757" lon="6.3715420011"><ele>784.09</ele><time>2015-07-15T18:26:30Z</time></trkpt>
<trkpt lat="46.6012517922" lon="6.3709268533"><ele>781.21</ele><time>2015-07-15T18:26:35Z</time></trkpt>
<trkpt lat="46.6011594236" lon="6.3706126157"><ele>780.25</ele><time>2015-07-15T18:26:38Z</time></trkpt>
<trkpt lat="46.6011431627" lon="6.3697655406"><ele>777.36</ele><time>2015-07-15T18:26:46Z</time></trkpt>
<trkpt lat="46.6010861658" lon="6.3693989161"><ele>777.36</ele><time>2015-07-15T18:26:50Z</time></trkpt>
<trkpt lat="46.6008467786" lon="6.3687591255"><ele>779.29</ele><time>2015-07-15T18:27:01Z</time></trkpt>
<trkpt lat="46.6006359737" lon="6.3683712948"><ele>778.81</ele><time>2015-07-15T18:27:11Z</time></trkpt>
<trkpt lat="46.6005507298" lon="6.3682829496"><ele>778.81</ele><time>2015-07-15T18:27:15Z</time></trkpt>
<trkpt lat="46.6004179604" lon="6.3685277011"><ele>777.84</ele><time>2015-07-15T18:27:21Z</time></trkpt>
<trkpt lat="46.6004169546" lon="6.3685841113"><ele>777.84</ele><time>2015-07-15T18:27:22Z</time></trkpt>
<trkpt lat="46.6004043818" lon="6.3689665776"><ele>775.44</ele><time>2015-07-15T18:27:30Z</time></trkpt>
<trkpt lat="46.6003886238" lon="6.3689925615"><ele>774.96</ele><time>2015-07-15T18:27:42Z</time></trkpt>
</trkseg></trk></gpx>